<?xml version="1.0" encoding="UTF-8"?><gpx xmlns="http://www.topografix.com/GPX/1/1" version="1.1" creator="iOrient"><trk><name>Старый Новый год трейл (Online)</name><trkseg><trkpt lat="56.2898583" lon="44.0163167"><time>2023-02-18T09:00:33.063</time></trkpt><trkpt lat="56.2898633" lon="44.0163067"><time>2023-02-18T09:00:34.057</time></trkpt><trkpt lat="56.2898767" lon="44.0163000"><time>2023-02-18T09:01:47.520</time></trkpt><trkpt lat="56.2898833" lon="44.0162950"><time>2023-02-18T09:01:48.010</time></trkpt><trkpt lat="56.2898300" lon="44.0163300"><time>2023-02-18T09:01:53.090</time></trkpt><trkpt lat="56.2897783" lon="44.0163850"><time>2023-02-18T09:01:56.097</time></trkpt><trkpt lat="56.2897333" lon="44.0164133"><time>2023-02-18T09:01:58.097</time></trkpt><trkpt lat="56.2896800" lon="44.0164367"><time>2023-02-18T09:02:01.087</time></trkpt><trkpt lat="56.2896283" lon="44.0164750"><time>2023-02-18T09:02:05.120</time></trkpt><trkpt lat="56.2895850" lon="44.0165283"><time>2023-02-18T09:02:08.113</time></trkpt><trkpt lat="56.2895433" lon="44.0165617"><time>2023-02-18T09:02:11.110</time></trkpt><trkpt lat="56.2894933" lon="44.0166067"><time>2023-02-18T09:02:14.113</time></trkpt><trkpt lat="56.2894433" lon="44.0166317"><time>2023-02-18T09:02:17.120</time></trkpt><trkpt lat="56.2894017" lon="44.0166633"><time>2023-02-18T09:02:20.120</time></trkpt><trkpt lat="56.2893500" lon="44.0166633"><time>2023-02-18T09:02:23.117</time></trkpt><trkpt lat="56.2892950" lon="44.0166583"><time>2023-02-18T09:02:27.100</time></trkpt><trkpt lat="56.2892500" lon="44.0166500"><time>2023-02-18T09:02:30.117</time></trkpt><trkpt lat="56.2891983" lon="44.0166433"><time>2023-02-18T09:02:33.123</time></trkpt><trkpt lat="56.2891850" lon="44.0166483"><time>2023-02-18T09:02:34.103</time></trkpt><trkpt lat="56.2891383" lon="44.0166450"><time>2023-02-18T09:02:37.117</time></trkpt><trkpt lat="56.2890917" lon="44.0166400"><time>2023-02-18T09:02:40.073</time></trkpt><trkpt lat="56.2890417" lon="44.0166417"><time>2023-02-18T09:02:43.120</time></trkpt><trkpt lat="56.2889950" lon="44.0166083"><time>2023-02-18T09:02:46.113</time></trkpt><trkpt lat="56.2889433" lon="44.0165667"><time>2023-02-18T09:02:50.117</time></trkpt><trkpt lat="56.2888967" lon="44.0165717"><time>2023-02-18T09:02:53.080</time></trkpt><trkpt lat="56.2888500" lon="44.0165917"><time>2023-02-18T09:02:56.097</time></trkpt><trkpt lat="56.2888050" lon="44.0166183"><time>2023-02-18T09:03:01.103</time></trkpt><trkpt lat="56.2887567" lon="44.0166133"><time>2023-02-18T09:03:12.137</time></trkpt><trkpt lat="56.2887383" lon="44.0166233"><time>2023-02-18T09:03:13.117</time></trkpt><trkpt lat="56.2886883" lon="44.0166467"><time>2023-02-18T09:03:16.117</time></trkpt><trkpt lat="56.2886583" lon="44.0167183"><time>2023-02-18T09:03:21.120</time></trkpt><trkpt lat="56.2886450" lon="44.0168033"><time>2023-02-18T09:03:29.117</time></trkpt><trkpt lat="56.2886167" lon="44.0168783"><time>2023-02-18T09:03:36.077</time></trkpt><trkpt lat="56.2885967" lon="44.0169550"><time>2023-02-18T09:03:41.117</time></trkpt><trkpt lat="56.2885733" lon="44.0170450"><time>2023-02-18T09:03:48.087</time></trkpt><trkpt lat="56.2885167" lon="44.0170233"><time>2023-02-18T09:03:52.080</time></trkpt><trkpt lat="56.2884683" lon="44.0170083"><time>2023-02-18T09:03:54.110</time></trkpt><trkpt lat="56.2884117" lon="44.0170017"><time>2023-02-18T09:03:57.083</time></trkpt><trkpt lat="56.2884617" lon="44.0170650"><time>2023-02-18T09:04:04.100</time></trkpt><trkpt lat="56.2885267" lon="44.0170883"><time>2023-02-18T09:04:07.083</time></trkpt><trkpt lat="56.2885750" lon="44.0171000"><time>2023-02-18T09:04:09.100</time></trkpt><trkpt lat="56.2886283" lon="44.0171217"><time>2023-02-18T09:04:11.087</time></trkpt><trkpt lat="56.2886800" lon="44.0171333"><time>2023-02-18T09:04:13.087</time></trkpt><trkpt lat="56.2887300" lon="44.0171550"><time>2023-02-18T09:04:15.090</time></trkpt><trkpt lat="56.2887783" lon="44.0171767"><time>2023-02-18T09:04:17.087</time></trkpt><trkpt lat="56.2888317" lon="44.0172083"><time>2023-02-18T09:04:19.097</time></trkpt><trkpt lat="56.2888817" lon="44.0172417"><time>2023-02-18T09:04:21.107</time></trkpt><trkpt lat="56.2889133" lon="44.0172633"><time>2023-02-18T09:04:22.083</time></trkpt><trkpt lat="56.2889550" lon="44.0173100"><time>2023-02-18T09:04:24.090</time></trkpt><trkpt lat="56.2889600" lon="44.0173967"><time>2023-02-18T09:04:27.083</time></trkpt><trkpt lat="56.2889100" lon="44.0174500"><time>2023-02-18T09:04:30.127</time></trkpt><trkpt lat="56.2888917" lon="44.0174667"><time>2023-02-18T09:04:31.093</time></trkpt><trkpt lat="56.2888350" lon="44.0175000"><time>2023-02-18T09:04:34.070</time></trkpt><trkpt lat="56.2887800" lon="44.0175233"><time>2023-02-18T09:04:37.117</time></trkpt><trkpt lat="56.2887250" lon="44.0175650"><time>2023-02-18T09:04:40.117</time></trkpt><trkpt lat="56.2886717" lon="44.0176017"><time>2023-02-18T09:04:43.120</time></trkpt><trkpt lat="56.2886267" lon="44.0176250"><time>2023-02-18T09:04:45.120</time></trkpt><trkpt lat="56.2885667" lon="44.0176667"><time>2023-02-18T09:04:48.117</time></trkpt><trkpt lat="56.2885117" lon="44.0176917"><time>2023-02-18T09:04:51.117</time></trkpt><trkpt lat="56.2884633" lon="44.0177267"><time>2023-02-18T09:04:54.123</time></trkpt><trkpt lat="56.2884083" lon="44.0177567"><time>2023-02-18T09:04:57.117</time></trkpt><trkpt lat="56.2883500" lon="44.0177850"><time>2023-02-18T09:05:00.117</time></trkpt><trkpt lat="56.2882917" lon="44.0178217"><time>2023-02-18T09:05:03.117</time></trkpt><trkpt lat="56.2882483" lon="44.0178517"><time>2023-02-18T09:05:05.117</time></trkpt><trkpt lat="56.2882033" lon="44.0178900"><time>2023-02-18T09:05:07.143</time></trkpt><trkpt lat="56.2881817" lon="44.0179000"><time>2023-02-18T09:05:08.103</time></trkpt><trkpt lat="56.2881367" lon="44.0179367"><time>2023-02-18T09:05:10.100</time></trkpt><trkpt lat="56.2880783" lon="44.0179850"><time>2023-02-18T09:05:13.103</time></trkpt><trkpt lat="56.2880267" lon="44.0180217"><time>2023-02-18T09:05:16.117</time></trkpt><trkpt lat="56.2879650" lon="44.0180767"><time>2023-02-18T09:05:19.117</time></trkpt><trkpt lat="56.2879233" lon="44.0181100"><time>2023-02-18T09:05:21.117</time></trkpt><trkpt lat="56.2878683" lon="44.0181433"><time>2023-02-18T09:05:24.117</time></trkpt><trkpt lat="56.2878133" lon="44.0181950"><time>2023-02-18T09:05:27.110</time></trkpt><trkpt lat="56.2877717" lon="44.0182300"><time>2023-02-18T09:05:29.137</time></trkpt><trkpt lat="56.2877517" lon="44.0182467"><time>2023-02-18T09:05:30.100</time></trkpt><trkpt lat="56.2877100" lon="44.0182800"><time>2023-02-18T09:05:32.100</time></trkpt><trkpt lat="56.2876567" lon="44.0183317"><time>2023-02-18T09:05:35.100</time></trkpt><trkpt lat="56.2876033" lon="44.0183550"><time>2023-02-18T09:05:38.100</time></trkpt><trkpt lat="56.2875567" lon="44.0183817"><time>2023-02-18T09:05:40.100</time></trkpt><trkpt lat="56.2875117" lon="44.0184017"><time>2023-02-18T09:05:42.100</time></trkpt><trkpt lat="56.2874600" lon="44.0184200"><time>2023-02-18T09:05:46.117</time></trkpt><trkpt lat="56.2874517" lon="44.0183217"><time>2023-02-18T09:05:49.107</time></trkpt><trkpt lat="56.2874483" lon="44.0182133"><time>2023-02-18T09:05:52.097</time></trkpt><trkpt lat="56.2874383" lon="44.0181250"><time>2023-02-18T09:05:55.107</time></trkpt><trkpt lat="56.2874383" lon="44.0180317"><time>2023-02-18T09:05:58.117</time></trkpt><trkpt lat="56.2874467" lon="44.0179500"><time>2023-02-18T09:06:01.120</time></trkpt><trkpt lat="56.2874583" lon="44.0178417"><time>2023-02-18T09:06:04.110</time></trkpt><trkpt lat="56.2874517" lon="44.0177250"><time>2023-02-18T09:06:07.140</time></trkpt><trkpt lat="56.2874517" lon="44.0176833"><time>2023-02-18T09:06:08.123</time></trkpt><trkpt lat="56.2874400" lon="44.0175867"><time>2023-02-18T09:06:10.103</time></trkpt><trkpt lat="56.2874167" lon="44.0174833"><time>2023-02-18T09:06:13.107</time></trkpt><trkpt lat="56.2874017" lon="44.0173900"><time>2023-02-18T09:06:17.117</time></trkpt><trkpt lat="56.2873900" lon="44.0173000"><time>2023-02-18T09:06:20.103</time></trkpt><trkpt lat="56.2873733" lon="44.0172017"><time>2023-02-18T09:06:23.107</time></trkpt><trkpt lat="56.2873783" lon="44.0170933"><time>2023-02-18T09:06:27.117</time></trkpt><trkpt lat="56.2873733" lon="44.0170100"><time>2023-02-18T09:06:30.120</time></trkpt><trkpt lat="56.2872600" lon="44.0169017"><time>2023-02-18T09:06:33.143</time></trkpt><trkpt lat="56.2872400" lon="44.0168800"><time>2023-02-18T09:06:34.103</time></trkpt><trkpt lat="56.2871867" lon="44.0168183"><time>2023-02-18T09:06:37.093</time></trkpt><trkpt lat="56.2871433" lon="44.0167633"><time>2023-02-18T09:06:40.100</time></trkpt><trkpt lat="56.2870950" lon="44.0166983"><time>2023-02-18T09:06:44.120</time></trkpt><trkpt lat="56.2870450" lon="44.0166300"><time>2023-02-18T09:06:47.117</time></trkpt><trkpt lat="56.2869967" lon="44.0165767"><time>2023-02-18T09:06:49.120</time></trkpt><trkpt lat="56.2869500" lon="44.0165317"><time>2023-02-18T09:06:51.117</time></trkpt><trkpt lat="56.2869100" lon="44.0164933"><time>2023-02-18T09:06:53.117</time></trkpt><trkpt lat="56.2868650" lon="44.0164667"><time>2023-02-18T09:06:55.117</time></trkpt><trkpt lat="56.2868100" lon="44.0164367"><time>2023-02-18T09:06:57.117</time></trkpt><trkpt lat="56.2867583" lon="44.0164050"><time>2023-02-18T09:06:59.117</time></trkpt><trkpt lat="56.2867133" lon="44.0163733"><time>2023-02-18T09:07:01.117</time></trkpt><trkpt lat="56.2866683" lon="44.0163317"><time>2023-02-18T09:07:03.117</time></trkpt><trkpt lat="56.2866267" lon="44.0162867"><time>2023-02-18T09:07:05.100</time></trkpt><trkpt lat="56.2865733" lon="44.0162317"><time>2023-02-18T09:07:08.097</time></trkpt><trkpt lat="56.2865083" lon="44.0161867"><time>2023-02-18T09:07:11.117</time></trkpt><trkpt lat="56.2864483" lon="44.0161450"><time>2023-02-18T09:07:14.110</time></trkpt><trkpt lat="56.2864017" lon="44.0161133"><time>2023-02-18T09:07:16.117</time></trkpt><trkpt lat="56.2863533" lon="44.0160617"><time>2023-02-18T09:07:19.127</time></trkpt><trkpt lat="56.2862917" lon="44.0160133"><time>2023-02-18T09:07:22.140</time></trkpt><trkpt lat="56.2862700" lon="44.0160000"><time>2023-02-18T09:07:23.100</time></trkpt><trkpt lat="56.2862183" lon="44.0159533"><time>2023-02-18T09:07:25.100</time></trkpt><trkpt lat="56.2861667" lon="44.0159250"><time>2023-02-18T09:07:27.103</time></trkpt><trkpt lat="56.2861217" lon="44.0159000"><time>2023-02-18T09:07:29.107</time></trkpt><trkpt lat="56.2860767" lon="44.0158783"><time>2023-02-18T09:07:31.117</time></trkpt><trkpt lat="56.2860317" lon="44.0158350"><time>2023-02-18T09:07:33.097</time></trkpt><trkpt lat="56.2859900" lon="44.0157817"><time>2023-02-18T09:07:35.100</time></trkpt><trkpt lat="56.2859450" lon="44.0157183"><time>2023-02-18T09:07:38.117</time></trkpt><trkpt lat="56.2859067" lon="44.0156600"><time>2023-02-18T09:07:41.117</time></trkpt><trkpt lat="56.2858450" lon="44.0156200"><time>2023-02-18T09:07:44.107</time></trkpt><trkpt lat="56.2857933" lon="44.0155983"><time>2023-02-18T09:07:46.100</time></trkpt><trkpt lat="56.2857467" lon="44.0155750"><time>2023-02-18T09:07:48.100</time></trkpt><trkpt lat="56.2856883" lon="44.0155317"><time>2023-02-18T09:07:51.117</time></trkpt><trkpt lat="56.2856317" lon="44.0154800"><time>2023-02-18T09:07:54.120</time></trkpt><trkpt lat="56.2855833" lon="44.0154433"><time>2023-02-18T09:07:56.103</time></trkpt><trkpt lat="56.2855283" lon="44.0154017"><time>2023-02-18T09:07:59.097</time></trkpt><trkpt lat="56.2854767" lon="44.0153650"><time>2023-02-18T09:08:02.117</time></trkpt><trkpt lat="56.2854317" lon="44.0153483"><time>2023-02-18T09:08:05.097</time></trkpt><trkpt lat="56.2853717" lon="44.0153283"><time>2023-02-18T09:08:08.103</time></trkpt><trkpt lat="56.2853250" lon="44.0153033"><time>2023-02-18T09:08:10.117</time></trkpt><trkpt lat="56.2852800" lon="44.0152867"><time>2023-02-18T09:08:12.117</time></trkpt><trkpt lat="56.2852133" lon="44.0152800"><time>2023-02-18T09:08:15.117</time></trkpt><trkpt lat="56.2851683" lon="44.0152883"><time>2023-02-18T09:08:17.097</time></trkpt><trkpt lat="56.2851067" lon="44.0152850"><time>2023-02-18T09:08:19.107</time></trkpt><trkpt lat="56.2850450" lon="44.0152867"><time>2023-02-18T09:08:21.100</time></trkpt><trkpt lat="56.2850000" lon="44.0152800"><time>2023-02-18T09:08:23.097</time></trkpt><trkpt lat="56.2849500" lon="44.0152817"><time>2023-02-18T09:08:25.100</time></trkpt><trkpt lat="56.2849000" lon="44.0152750"><time>2023-02-18T09:08:27.117</time></trkpt><trkpt lat="56.2848383" lon="44.0152617"><time>2023-02-18T09:08:29.103</time></trkpt><trkpt lat="56.2847883" lon="44.0153067"><time>2023-02-18T09:08:32.097</time></trkpt><trkpt lat="56.2847500" lon="44.0153550"><time>2023-02-18T09:08:35.113</time></trkpt><trkpt lat="56.2847083" lon="44.0154133"><time>2023-02-18T09:08:38.117</time></trkpt><trkpt lat="56.2846567" lon="44.0154750"><time>2023-02-18T09:08:41.117</time></trkpt><trkpt lat="56.2846133" lon="44.0155267"><time>2023-02-18T09:08:43.113</time></trkpt><trkpt lat="56.2845767" lon="44.0155833"><time>2023-02-18T09:08:45.117</time></trkpt><trkpt lat="56.2845517" lon="44.0156750"><time>2023-02-18T09:08:49.123</time></trkpt><trkpt lat="56.2845250" lon="44.0157683"><time>2023-02-18T09:08:52.117</time></trkpt><trkpt lat="56.2845117" lon="44.0158800"><time>2023-02-18T09:08:55.113</time></trkpt><trkpt lat="56.2844900" lon="44.0159950"><time>2023-02-18T09:08:58.087</time></trkpt><trkpt lat="56.2844767" lon="44.0160800"><time>2023-02-18T09:09:01.117</time></trkpt><trkpt lat="56.2844633" lon="44.0161650"><time>2023-02-18T09:09:04.120</time></trkpt><trkpt lat="56.2844350" lon="44.0162733"><time>2023-02-18T09:09:07.117</time></trkpt><trkpt lat="56.2843983" lon="44.0163600"><time>2023-02-18T09:09:10.117</time></trkpt><trkpt lat="56.2843633" lon="44.0164150"><time>2023-02-18T09:09:13.103</time></trkpt><trkpt lat="56.2843317" lon="44.0164833"><time>2023-02-18T09:09:16.103</time></trkpt><trkpt lat="56.2843000" lon="44.0165550"><time>2023-02-18T09:09:19.120</time></trkpt><trkpt lat="56.2842717" lon="44.0166433"><time>2023-02-18T09:09:21.117</time></trkpt><trkpt lat="56.2842367" lon="44.0167483"><time>2023-02-18T09:09:24.120</time></trkpt><trkpt lat="56.2841850" lon="44.0167967"><time>2023-02-18T09:09:28.113</time></trkpt><trkpt lat="56.2841333" lon="44.0168083"><time>2023-02-18T09:09:31.120</time></trkpt><trkpt lat="56.2840733" lon="44.0168117"><time>2023-02-18T09:09:34.120</time></trkpt><trkpt lat="56.2840283" lon="44.0168183"><time>2023-02-18T09:09:36.113</time></trkpt><trkpt lat="56.2839650" lon="44.0168433"><time>2023-02-18T09:09:39.123</time></trkpt><trkpt lat="56.2839183" lon="44.0168817"><time>2023-02-18T09:09:41.100</time></trkpt><trkpt lat="56.2838717" lon="44.0169417"><time>2023-02-18T09:09:44.097</time></trkpt><trkpt lat="56.2838167" lon="44.0169650"><time>2023-02-18T09:09:48.110</time></trkpt><trkpt lat="56.2837633" lon="44.0169483"><time>2023-02-18T09:09:51.113</time></trkpt><trkpt lat="56.2837117" lon="44.0169483"><time>2023-02-18T09:09:54.107</time></trkpt><trkpt lat="56.2836517" lon="44.0169583"><time>2023-02-18T09:09:57.107</time></trkpt><trkpt lat="56.2835917" lon="44.0169650"><time>2023-02-18T09:10:00.110</time></trkpt><trkpt lat="56.2835350" lon="44.0169800"><time>2023-02-18T09:10:03.110</time></trkpt><trkpt lat="56.2834750" lon="44.0170000"><time>2023-02-18T09:10:06.110</time></trkpt><trkpt lat="56.2834200" lon="44.0170433"><time>2023-02-18T09:10:09.100</time></trkpt><trkpt lat="56.2833650" lon="44.0171100"><time>2023-02-18T09:10:12.110</time></trkpt><trkpt lat="56.2833200" lon="44.0171750"><time>2023-02-18T09:10:14.090</time></trkpt><trkpt lat="56.2832717" lon="44.0172417"><time>2023-02-18T09:10:16.093</time></trkpt><trkpt lat="56.2832133" lon="44.0172933"><time>2023-02-18T09:10:18.117</time></trkpt><trkpt lat="56.2831733" lon="44.0173450"><time>2023-02-18T09:10:20.110</time></trkpt><trkpt lat="56.2831183" lon="44.0173933"><time>2023-02-18T09:10:22.110</time></trkpt><trkpt lat="56.2830717" lon="44.0174467"><time>2023-02-18T09:10:24.113</time></trkpt><trkpt lat="56.2830333" lon="44.0174917"><time>2023-02-18T09:10:25.113</time></trkpt><trkpt lat="56.2829600" lon="44.0175700"><time>2023-02-18T09:10:27.110</time></trkpt><trkpt lat="56.2828950" lon="44.0176317"><time>2023-02-18T09:10:29.103</time></trkpt><trkpt lat="56.2828350" lon="44.0177100"><time>2023-02-18T09:10:32.093</time></trkpt><trkpt lat="56.2827767" lon="44.0177850"><time>2023-02-18T09:10:34.113</time></trkpt><trkpt lat="56.2827250" lon="44.0178483"><time>2023-02-18T09:10:36.097</time></trkpt><trkpt lat="56.2826567" lon="44.0179017"><time>2023-02-18T09:10:38.093</time></trkpt><trkpt lat="56.2825933" lon="44.0179567"><time>2023-02-18T09:10:40.097</time></trkpt><trkpt lat="56.2825433" lon="44.0180100"><time>2023-02-18T09:10:42.093</time></trkpt><trkpt lat="56.2824967" lon="44.0180750"><time>2023-02-18T09:10:44.113</time></trkpt><trkpt lat="56.2824533" lon="44.0181383"><time>2023-02-18T09:10:46.107</time></trkpt><trkpt lat="56.2824050" lon="44.0181850"><time>2023-02-18T09:10:48.110</time></trkpt><trkpt lat="56.2823567" lon="44.0182233"><time>2023-02-18T09:10:50.097</time></trkpt><trkpt lat="56.2822800" lon="44.0183033"><time>2023-02-18T09:10:52.090</time></trkpt><trkpt lat="56.2822317" lon="44.0183350"><time>2023-02-18T09:10:54.093</time></trkpt><trkpt lat="56.2821850" lon="44.0183683"><time>2023-02-18T09:10:56.097</time></trkpt><trkpt lat="56.2821367" lon="44.0184117"><time>2023-02-18T09:10:58.097</time></trkpt><trkpt lat="56.2820933" lon="44.0184867"><time>2023-02-18T09:11:00.093</time></trkpt><trkpt lat="56.2820433" lon="44.0185333"><time>2023-02-18T09:11:02.077</time></trkpt><trkpt lat="56.2819733" lon="44.0185633"><time>2023-02-18T09:11:05.097</time></trkpt><trkpt lat="56.2819283" lon="44.0185617"><time>2023-02-18T09:11:07.113</time></trkpt><trkpt lat="56.2818283" lon="44.0186733"><time>2023-02-18T09:11:09.097</time></trkpt><trkpt lat="56.2817800" lon="44.0186483"><time>2023-02-18T09:11:12.107</time></trkpt><trkpt lat="56.2817217" lon="44.0185950"><time>2023-02-18T09:11:16.117</time></trkpt><trkpt lat="56.2816650" lon="44.0185650"><time>2023-02-18T09:11:17.097</time></trkpt><trkpt lat="56.2816167" lon="44.0185300"><time>2023-02-18T09:11:19.113</time></trkpt><trkpt lat="56.2815783" lon="44.0184750"><time>2023-02-18T09:11:21.120</time></trkpt><trkpt lat="56.2815417" lon="44.0184217"><time>2023-02-18T09:11:23.120</time></trkpt><trkpt lat="56.2814967" lon="44.0183633"><time>2023-02-18T09:11:26.103</time></trkpt><trkpt lat="56.2814583" lon="44.0183100"><time>2023-02-18T09:11:28.100</time></trkpt><trkpt lat="56.2814183" lon="44.0182583"><time>2023-02-18T09:11:30.097</time></trkpt><trkpt lat="56.2813783" lon="44.0182167"><time>2023-02-18T09:11:32.103</time></trkpt><trkpt lat="56.2813233" lon="44.0181767"><time>2023-02-18T09:11:35.100</time></trkpt><trkpt lat="56.2812650" lon="44.0181433"><time>2023-02-18T09:11:38.117</time></trkpt><trkpt lat="56.2812217" lon="44.0180867"><time>2023-02-18T09:11:41.113</time></trkpt><trkpt lat="56.2811733" lon="44.0180167"><time>2023-02-18T09:11:44.100</time></trkpt><trkpt lat="56.2811367" lon="44.0179483"><time>2023-02-18T09:11:47.077</time></trkpt><trkpt lat="56.2810950" lon="44.0178683"><time>2023-02-18T09:11:50.100</time></trkpt><trkpt lat="56.2810600" lon="44.0177800"><time>2023-02-18T09:11:54.110</time></trkpt><trkpt lat="56.2810433" lon="44.0176883"><time>2023-02-18T09:11:57.117</time></trkpt><trkpt lat="56.2810250" lon="44.0176050"><time>2023-02-18T09:12:00.117</time></trkpt><trkpt lat="56.2810067" lon="44.0175017"><time>2023-02-18T09:12:03.117</time></trkpt><trkpt lat="56.2810000" lon="44.0173900"><time>2023-02-18T09:12:06.117</time></trkpt><trkpt lat="56.2809983" lon="44.0172967"><time>2023-02-18T09:12:09.107</time></trkpt><trkpt lat="56.2810000" lon="44.0171850"><time>2023-02-18T09:12:12.117</time></trkpt><trkpt lat="56.2810000" lon="44.0170783"><time>2023-02-18T09:12:15.130</time></trkpt><trkpt lat="56.2809900" lon="44.0169667"><time>2023-02-18T09:12:18.117</time></trkpt><trkpt lat="56.2809567" lon="44.0167967"><time>2023-02-18T09:12:20.117</time></trkpt><trkpt lat="56.2809617" lon="44.0167100"><time>2023-02-18T09:12:23.103</time></trkpt><trkpt lat="56.2809517" lon="44.0166033"><time>2023-02-18T09:12:26.110</time></trkpt><trkpt lat="56.2809367" lon="44.0165150"><time>2023-02-18T09:12:28.113</time></trkpt><trkpt lat="56.2809233" lon="44.0164367"><time>2023-02-18T09:12:30.117</time></trkpt><trkpt lat="56.2809000" lon="44.0163400"><time>2023-02-18T09:12:33.117</time></trkpt><trkpt lat="56.2808717" lon="44.0162650"><time>2023-02-18T09:12:36.117</time></trkpt><trkpt lat="56.2808317" lon="44.0162017"><time>2023-02-18T09:12:38.117</time></trkpt><trkpt lat="56.2807800" lon="44.0161267"><time>2023-02-18T09:12:40.117</time></trkpt><trkpt lat="56.2807300" lon="44.0160533"><time>2023-02-18T09:12:43.103</time></trkpt><trkpt lat="56.2806800" lon="44.0159867"><time>2023-02-18T09:12:46.100</time></trkpt><trkpt lat="56.2806417" lon="44.0159350"><time>2023-02-18T09:12:49.123</time></trkpt><trkpt lat="56.2806067" lon="44.0158700"><time>2023-02-18T09:12:51.100</time></trkpt><trkpt lat="56.2805683" lon="44.0157950"><time>2023-02-18T09:12:53.100</time></trkpt><trkpt lat="56.2805317" lon="44.0157200"><time>2023-02-18T09:12:55.117</time></trkpt><trkpt lat="56.2804933" lon="44.0156433"><time>2023-02-18T09:12:57.117</time></trkpt><trkpt lat="56.2804583" lon="44.0155867"><time>2023-02-18T09:12:59.107</time></trkpt><trkpt lat="56.2804183" lon="44.0155150"><time>2023-02-18T09:13:01.097</time></trkpt><trkpt lat="56.2803883" lon="44.0154450"><time>2023-02-18T09:13:03.097</time></trkpt><trkpt lat="56.2803400" lon="44.0153833"><time>2023-02-18T09:13:05.103</time></trkpt><trkpt lat="56.2803017" lon="44.0153033"><time>2023-02-18T09:13:08.100</time></trkpt><trkpt lat="56.2802533" lon="44.0152450"><time>2023-02-18T09:13:10.097</time></trkpt><trkpt lat="56.2802217" lon="44.0151683"><time>2023-02-18T09:13:13.117</time></trkpt><trkpt lat="56.2801817" lon="44.0151050"><time>2023-02-18T09:13:15.117</time></trkpt><trkpt lat="56.2800433" lon="44.0150283"><time>2023-02-18T09:13:16.117</time></trkpt><trkpt lat="56.2800117" lon="44.0149667"><time>2023-02-18T09:13:18.120</time></trkpt><trkpt lat="56.2799750" lon="44.0149083"><time>2023-02-18T09:13:21.120</time></trkpt><trkpt lat="56.2799317" lon="44.0148533"><time>2023-02-18T09:13:23.093</time></trkpt><trkpt lat="56.2798833" lon="44.0147800"><time>2023-02-18T09:13:26.103</time></trkpt><trkpt lat="56.2798483" lon="44.0147267"><time>2023-02-18T09:13:28.113</time></trkpt><trkpt lat="56.2798050" lon="44.0146883"><time>2023-02-18T09:13:30.077</time></trkpt><trkpt lat="56.2797567" lon="44.0146533"><time>2023-02-18T09:13:32.087</time></trkpt><trkpt lat="56.2797117" lon="44.0146467"><time>2023-02-18T09:13:34.133</time></trkpt><trkpt lat="56.2796667" lon="44.0146117"><time>2023-02-18T09:13:36.117</time></trkpt><trkpt lat="56.2796267" lon="44.0145733"><time>2023-02-18T09:13:38.117</time></trkpt><trkpt lat="56.2795867" lon="44.0145333"><time>2023-02-18T09:13:40.097</time></trkpt><trkpt lat="56.2795433" lon="44.0144800"><time>2023-02-18T09:13:42.097</time></trkpt><trkpt lat="56.2794917" lon="44.0144417"><time>2023-02-18T09:13:44.107</time></trkpt><trkpt lat="56.2794333" lon="44.0144317"><time>2023-02-18T09:13:47.100</time></trkpt><trkpt lat="56.2793767" lon="44.0144117"><time>2023-02-18T09:13:49.100</time></trkpt><trkpt lat="56.2793183" lon="44.0144083"><time>2023-02-18T09:13:51.100</time></trkpt><trkpt lat="56.2792683" lon="44.0144167"><time>2023-02-18T09:13:53.100</time></trkpt><trkpt lat="56.2792183" lon="44.0144250"><time>2023-02-18T09:13:55.100</time></trkpt><trkpt lat="56.2791633" lon="44.0144067"><time>2023-02-18T09:13:57.113</time></trkpt><trkpt lat="56.2791050" lon="44.0143733"><time>2023-02-18T09:13:59.117</time></trkpt><trkpt lat="56.2790533" lon="44.0143400"><time>2023-02-18T09:14:01.100</time></trkpt><trkpt lat="56.2790083" lon="44.0143150"><time>2023-02-18T09:14:03.100</time></trkpt><trkpt lat="56.2789700" lon="44.0142700"><time>2023-02-18T09:14:05.097</time></trkpt><trkpt lat="56.2789367" lon="44.0142150"><time>2023-02-18T09:14:07.100</time></trkpt><trkpt lat="56.2789100" lon="44.0141450"><time>2023-02-18T09:14:09.117</time></trkpt><trkpt lat="56.2788883" lon="44.0140417"><time>2023-02-18T09:14:12.117</time></trkpt><trkpt lat="56.2788833" lon="44.0139317"><time>2023-02-18T09:14:15.187</time></trkpt><trkpt lat="56.2788817" lon="44.0139000"><time>2023-02-18T09:14:16.103</time></trkpt><trkpt lat="56.2788900" lon="44.0138100"><time>2023-02-18T09:14:18.100</time></trkpt><trkpt lat="56.2788917" lon="44.0137017"><time>2023-02-18T09:14:21.093</time></trkpt><trkpt lat="56.2788917" lon="44.0136150"><time>2023-02-18T09:14:24.110</time></trkpt><trkpt lat="56.2788967" lon="44.0135100"><time>2023-02-18T09:14:27.117</time></trkpt><trkpt lat="56.2789083" lon="44.0134283"><time>2023-02-18T09:14:30.117</time></trkpt><trkpt lat="56.2789217" lon="44.0133150"><time>2023-02-18T09:14:33.117</time></trkpt><trkpt lat="56.2789250" lon="44.0132033"><time>2023-02-18T09:14:36.117</time></trkpt><trkpt lat="56.2789250" lon="44.0131000"><time>2023-02-18T09:14:39.123</time></trkpt><trkpt lat="56.2789283" lon="44.0129950"><time>2023-02-18T09:14:42.117</time></trkpt><trkpt lat="56.2789250" lon="44.0128983"><time>2023-02-18T09:14:45.117</time></trkpt><trkpt lat="56.2789150" lon="44.0127750"><time>2023-02-18T09:14:47.117</time></trkpt><trkpt lat="56.2789033" lon="44.0126867"><time>2023-02-18T09:14:50.123</time></trkpt><trkpt lat="56.2789400" lon="44.0126067"><time>2023-02-18T09:14:54.113</time></trkpt><trkpt lat="56.2789767" lon="44.0125583"><time>2023-02-18T09:14:56.117</time></trkpt><trkpt lat="56.2790167" lon="44.0124833"><time>2023-02-18T09:14:59.103</time></trkpt><trkpt lat="56.2790550" lon="44.0124067"><time>2023-02-18T09:15:02.120</time></trkpt><trkpt lat="56.2790967" lon="44.0123400"><time>2023-02-18T09:15:05.117</time></trkpt><trkpt lat="56.2790350" lon="44.0120583"><time>2023-02-18T09:15:07.110</time></trkpt><trkpt lat="56.2790683" lon="44.0119617"><time>2023-02-18T09:15:10.097</time></trkpt><trkpt lat="56.2791050" lon="44.0118883"><time>2023-02-18T09:15:13.137</time></trkpt><trkpt lat="56.2791233" lon="44.0118683"><time>2023-02-18T09:15:14.110</time></trkpt><trkpt lat="56.2791700" lon="44.0118283"><time>2023-02-18T09:15:16.100</time></trkpt><trkpt lat="56.2792133" lon="44.0117850"><time>2023-02-18T09:15:18.100</time></trkpt><trkpt lat="56.2792617" lon="44.0117450"><time>2023-02-18T09:15:21.117</time></trkpt><trkpt lat="56.2793167" lon="44.0117117"><time>2023-02-18T09:15:24.117</time></trkpt><trkpt lat="56.2793733" lon="44.0116800"><time>2023-02-18T09:15:27.117</time></trkpt><trkpt lat="56.2794350" lon="44.0116417"><time>2023-02-18T09:15:30.117</time></trkpt><trkpt lat="56.2794950" lon="44.0115883"><time>2023-02-18T09:15:33.137</time></trkpt><trkpt lat="56.2795133" lon="44.0115733"><time>2023-02-18T09:15:34.120</time></trkpt><trkpt lat="56.2795650" lon="44.0115400"><time>2023-02-18T09:15:37.097</time></trkpt><trkpt lat="56.2796067" lon="44.0115067"><time>2023-02-18T09:15:39.107</time></trkpt><trkpt lat="56.2796550" lon="44.0114533"><time>2023-02-18T09:15:42.117</time></trkpt><trkpt lat="56.2797117" lon="44.0114100"><time>2023-02-18T09:15:45.107</time></trkpt><trkpt lat="56.2797650" lon="44.0113550"><time>2023-02-18T09:15:48.097</time></trkpt><trkpt lat="56.2798217" lon="44.0113050"><time>2023-02-18T09:15:51.130</time></trkpt><trkpt lat="56.2798217" lon="44.0113050"><time>2023-02-18T09:15:51.173</time></trkpt><trkpt lat="56.2798767" lon="44.0112483"><time>2023-02-18T09:15:54.127</time></trkpt><trkpt lat="56.2798983" lon="44.0112250"><time>2023-02-18T09:15:55.100</time></trkpt><trkpt lat="56.2799433" lon="44.0111867"><time>2023-02-18T09:15:57.103</time></trkpt><trkpt lat="56.2799867" lon="44.0111517"><time>2023-02-18T09:15:59.107</time></trkpt><trkpt lat="56.2800483" lon="44.0111000"><time>2023-02-18T09:16:02.120</time></trkpt><trkpt lat="56.2800917" lon="44.0110617"><time>2023-02-18T09:16:04.110</time></trkpt><trkpt lat="56.2801283" lon="44.0109950"><time>2023-02-18T09:16:06.120</time></trkpt><trkpt lat="56.2801767" lon="44.0109483"><time>2023-02-18T09:16:08.120</time></trkpt><trkpt lat="56.2802283" lon="44.0108983"><time>2023-02-18T09:16:11.120</time></trkpt><trkpt lat="56.2802750" lon="44.0108467"><time>2023-02-18T09:16:14.123</time></trkpt><trkpt lat="56.2803117" lon="44.0107900"><time>2023-02-18T09:16:16.117</time></trkpt><trkpt lat="56.2803467" lon="44.0107000"><time>2023-02-18T09:16:19.130</time></trkpt><trkpt lat="56.2803533" lon="44.0105950"><time>2023-02-18T09:16:22.117</time></trkpt><trkpt lat="56.2803550" lon="44.0104867"><time>2023-02-18T09:16:25.117</time></trkpt><trkpt lat="56.2803417" lon="44.0103933"><time>2023-02-18T09:16:29.120</time></trkpt><trkpt lat="56.2802917" lon="44.0103583"><time>2023-02-18T09:16:33.120</time></trkpt><trkpt lat="56.2802383" lon="44.0102967"><time>2023-02-18T09:16:36.103</time></trkpt><trkpt lat="56.2802033" lon="44.0102417"><time>2023-02-18T09:16:38.103</time></trkpt><trkpt lat="56.2801600" lon="44.0101817"><time>2023-02-18T09:16:41.120</time></trkpt><trkpt lat="56.2801183" lon="44.0101150"><time>2023-02-18T09:16:44.113</time></trkpt><trkpt lat="56.2800867" lon="44.0100267"><time>2023-02-18T09:16:47.100</time></trkpt><trkpt lat="56.2800583" lon="44.0099500"><time>2023-02-18T09:16:50.100</time></trkpt><trkpt lat="56.2800133" lon="44.0099167"><time>2023-02-18T09:16:54.123</time></trkpt><trkpt lat="56.2799650" lon="44.0099133"><time>2023-02-18T09:16:57.127</time></trkpt><trkpt lat="56.2799150" lon="44.0099050"><time>2023-02-18T09:17:00.130</time></trkpt><trkpt lat="56.2798700" lon="44.0099117"><time>2023-02-18T09:17:03.103</time></trkpt><trkpt lat="56.2797983" lon="44.0098900"><time>2023-02-18T09:17:05.107</time></trkpt><trkpt lat="56.2797150" lon="44.0097717"><time>2023-02-18T09:17:06.103</time></trkpt><trkpt lat="56.2796567" lon="44.0097767"><time>2023-02-18T09:17:08.100</time></trkpt><trkpt lat="56.2795983" lon="44.0097750"><time>2023-02-18T09:17:10.120</time></trkpt><trkpt lat="56.2795400" lon="44.0097717"><time>2023-02-18T09:17:13.107</time></trkpt><trkpt lat="56.2794917" lon="44.0097567"><time>2023-02-18T09:17:15.097</time></trkpt><trkpt lat="56.2794350" lon="44.0097383"><time>2023-02-18T09:17:17.123</time></trkpt><trkpt lat="56.2793800" lon="44.0097267"><time>2023-02-18T09:17:19.107</time></trkpt><trkpt lat="56.2793283" lon="44.0097100"><time>2023-02-18T09:17:21.100</time></trkpt><trkpt lat="56.2792733" lon="44.0096783"><time>2023-02-18T09:17:24.117</time></trkpt><trkpt lat="56.2792250" lon="44.0096500"><time>2023-02-18T09:17:27.127</time></trkpt><trkpt lat="56.2791683" lon="44.0096350"><time>2023-02-18T09:17:29.110</time></trkpt><trkpt lat="56.2791200" lon="44.0096233"><time>2023-02-18T09:17:31.107</time></trkpt><trkpt lat="56.2790650" lon="44.0096350"><time>2023-02-18T09:17:34.107</time></trkpt><trkpt lat="56.2790000" lon="44.0096617"><time>2023-02-18T09:17:37.123</time></trkpt><trkpt lat="56.2789500" lon="44.0097017"><time>2023-02-18T09:17:40.117</time></trkpt><trkpt lat="56.2788883" lon="44.0097317"><time>2023-02-18T09:17:43.113</time></trkpt><trkpt lat="56.2788333" lon="44.0097400"><time>2023-02-18T09:17:46.103</time></trkpt><trkpt lat="56.2787733" lon="44.0097500"><time>2023-02-18T09:17:49.103</time></trkpt><trkpt lat="56.2787150" lon="44.0097567"><time>2023-02-18T09:17:52.117</time></trkpt><trkpt lat="56.2786683" lon="44.0097617"><time>2023-02-18T09:17:54.123</time></trkpt><trkpt lat="56.2786133" lon="44.0097783"><time>2023-02-18T09:17:56.117</time></trkpt><trkpt lat="56.2785483" lon="44.0097983"><time>2023-02-18T09:17:58.123</time></trkpt><trkpt lat="56.2785000" lon="44.0098117"><time>2023-02-18T09:18:00.120</time></trkpt><trkpt lat="56.2784533" lon="44.0098317"><time>2023-02-18T09:18:02.123</time></trkpt><trkpt lat="56.2784083" lon="44.0098617"><time>2023-02-18T09:18:04.127</time></trkpt><trkpt lat="56.2782817" lon="44.0099817"><time>2023-02-18T09:18:07.110</time></trkpt><trkpt lat="56.2782233" lon="44.0100267"><time>2023-02-18T09:18:08.113</time></trkpt><trkpt lat="56.2781550" lon="44.0100750"><time>2023-02-18T09:18:10.113</time></trkpt><trkpt lat="56.2780867" lon="44.0101150"><time>2023-02-18T09:18:12.113</time></trkpt><trkpt lat="56.2780400" lon="44.0101350"><time>2023-02-18T09:18:14.113</time></trkpt><trkpt lat="56.2779850" lon="44.0101400"><time>2023-02-18T09:18:16.113</time></trkpt><trkpt lat="56.2779383" lon="44.0101233"><time>2023-02-18T09:18:18.113</time></trkpt><trkpt lat="56.2778833" lon="44.0101300"><time>2023-02-18T09:18:20.113</time></trkpt><trkpt lat="56.2778283" lon="44.0101167"><time>2023-02-18T09:18:22.113</time></trkpt><trkpt lat="56.2777783" lon="44.0101117"><time>2023-02-18T09:18:25.117</time></trkpt><trkpt lat="56.2777117" lon="44.0101067"><time>2023-02-18T09:18:28.113</time></trkpt><trkpt lat="56.2776500" lon="44.0101217"><time>2023-02-18T09:18:30.117</time></trkpt><trkpt lat="56.2775917" lon="44.0101350"><time>2023-02-18T09:18:32.117</time></trkpt><trkpt lat="56.2775400" lon="44.0101533"><time>2023-02-18T09:18:35.117</time></trkpt><trkpt lat="56.2774833" lon="44.0101683"><time>2023-02-18T09:18:37.117</time></trkpt><trkpt lat="56.2774283" lon="44.0101967"><time>2023-02-18T09:18:39.127</time></trkpt><trkpt lat="56.2773750" lon="44.0102383"><time>2023-02-18T09:18:42.120</time></trkpt><trkpt lat="56.2773333" lon="44.0103150"><time>2023-02-18T09:18:44.120</time></trkpt><trkpt lat="56.2772817" lon="44.0103850"><time>2023-02-18T09:18:47.117</time></trkpt><trkpt lat="56.2772383" lon="44.0104717"><time>2023-02-18T09:18:50.120</time></trkpt><trkpt lat="56.2772117" lon="44.0105483"><time>2023-02-18T09:18:52.120</time></trkpt><trkpt lat="56.2771850" lon="44.0106350"><time>2023-02-18T09:18:54.120</time></trkpt><trkpt lat="56.2771683" lon="44.0107133"><time>2023-02-18T09:18:56.120</time></trkpt><trkpt lat="56.2771517" lon="44.0108117"><time>2023-02-18T09:18:58.123</time></trkpt><trkpt lat="56.2771367" lon="44.0108983"><time>2023-02-18T09:19:00.103</time></trkpt><trkpt lat="56.2771267" lon="44.0109850"><time>2023-02-18T09:19:03.100</time></trkpt><trkpt lat="56.2770983" lon="44.0110617"><time>2023-02-18T09:19:06.117</time></trkpt><trkpt lat="56.2770567" lon="44.0111350"><time>2023-02-18T09:19:10.110</time></trkpt><trkpt lat="56.2770100" lon="44.0112200"><time>2023-02-18T09:19:13.123</time></trkpt><trkpt lat="56.2769683" lon="44.0112833"><time>2023-02-18T09:19:16.123</time></trkpt><trkpt lat="56.2769167" lon="44.0113600"><time>2023-02-18T09:19:18.120</time></trkpt><trkpt lat="56.2768733" lon="44.0114383"><time>2023-02-18T09:19:21.120</time></trkpt><trkpt lat="56.2768267" lon="44.0115000"><time>2023-02-18T09:19:23.123</time></trkpt><trkpt lat="56.2767783" lon="44.0115683"><time>2023-02-18T09:19:26.123</time></trkpt><trkpt lat="56.2767417" lon="44.0116250"><time>2023-02-18T09:19:28.120</time></trkpt><trkpt lat="56.2766950" lon="44.0117067"><time>2023-02-18T09:19:30.123</time></trkpt><trkpt lat="56.2766617" lon="44.0117800"><time>2023-02-18T09:19:32.120</time></trkpt><trkpt lat="56.2766250" lon="44.0118550"><time>2023-02-18T09:19:36.097</time></trkpt><trkpt lat="56.2765383" lon="44.0119500"><time>2023-02-18T09:19:39.097</time></trkpt><trkpt lat="56.2764850" lon="44.0119717"><time>2023-02-18T09:19:43.140</time></trkpt><trkpt lat="56.2764700" lon="44.0119750"><time>2023-02-18T09:19:44.103</time></trkpt><trkpt lat="56.2764200" lon="44.0119967"><time>2023-02-18T09:19:46.080</time></trkpt><trkpt lat="56.2763733" lon="44.0120333"><time>2023-02-18T09:19:48.097</time></trkpt><trkpt lat="56.2763133" lon="44.0120683"><time>2023-02-18T09:19:51.120</time></trkpt><trkpt lat="56.2762667" lon="44.0121117"><time>2023-02-18T09:19:54.113</time></trkpt><trkpt lat="56.2762033" lon="44.0121617"><time>2023-02-18T09:19:57.120</time></trkpt><trkpt lat="56.2761433" lon="44.0122117"><time>2023-02-18T09:19:59.120</time></trkpt><trkpt lat="56.2760800" lon="44.0122500"><time>2023-02-18T09:20:01.123</time></trkpt><trkpt lat="56.2760317" lon="44.0122800"><time>2023-02-18T09:20:03.123</time></trkpt><trkpt lat="56.2759700" lon="44.0123117"><time>2023-02-18T09:20:06.120</time></trkpt><trkpt lat="56.2759200" lon="44.0123417"><time>2023-02-18T09:20:09.123</time></trkpt><trkpt lat="56.2758667" lon="44.0123933"><time>2023-02-18T09:20:13.120</time></trkpt><trkpt lat="56.2758133" lon="44.0124250"><time>2023-02-18T09:20:15.123</time></trkpt><trkpt lat="56.2757433" lon="44.0124833"><time>2023-02-18T09:20:17.120</time></trkpt><trkpt lat="56.2756983" lon="44.0125117"><time>2023-02-18T09:20:19.113</time></trkpt><trkpt lat="56.2756433" lon="44.0125267"><time>2023-02-18T09:20:21.117</time></trkpt><trkpt lat="56.2755917" lon="44.0125417"><time>2023-02-18T09:20:23.143</time></trkpt><trkpt lat="56.2755700" lon="44.0125617"><time>2023-02-18T09:20:24.110</time></trkpt><trkpt lat="56.2755183" lon="44.0126367"><time>2023-02-18T09:20:27.103</time></trkpt><trkpt lat="56.2754667" lon="44.0127200"><time>2023-02-18T09:20:30.100</time></trkpt><trkpt lat="56.2754217" lon="44.0127717"><time>2023-02-18T09:20:33.117</time></trkpt><trkpt lat="56.2753733" lon="44.0128450"><time>2023-02-18T09:20:35.120</time></trkpt><trkpt lat="56.2753067" lon="44.0129550"><time>2023-02-18T09:20:37.117</time></trkpt><trkpt lat="56.2752733" lon="44.0130300"><time>2023-02-18T09:20:38.140</time></trkpt><trkpt lat="56.2752417" lon="44.0130700"><time>2023-02-18T09:20:39.107</time></trkpt><trkpt lat="56.2752000" lon="44.0131267"><time>2023-02-18T09:20:40.103</time></trkpt><trkpt lat="56.2751550" lon="44.0131933"><time>2023-02-18T09:20:41.100</time></trkpt><trkpt lat="56.2751183" lon="44.0132500"><time>2023-02-18T09:20:42.103</time></trkpt><trkpt lat="56.2750700" lon="44.0133283"><time>2023-02-18T09:20:44.100</time></trkpt><trkpt lat="56.2750300" lon="44.0133800"><time>2023-02-18T09:20:46.100</time></trkpt><trkpt lat="56.2749967" lon="44.0134550"><time>2023-02-18T09:20:53.127</time></trkpt><trkpt lat="56.2749967" lon="44.0134550"><time>2023-02-18T09:20:53.163</time></trkpt><trkpt lat="56.2749633" lon="44.0136933"><time>2023-02-18T09:20:56.120</time></trkpt><trkpt lat="56.2749633" lon="44.0137517"><time>2023-02-18T09:20:57.103</time></trkpt><trkpt lat="56.2749667" lon="44.0138467"><time>2023-02-18T09:20:59.107</time></trkpt><trkpt lat="56.2749767" lon="44.0139400"><time>2023-02-18T09:21:02.103</time></trkpt><trkpt lat="56.2750167" lon="44.0139867"><time>2023-02-18T09:21:05.120</time></trkpt><trkpt lat="56.2750600" lon="44.0140517"><time>2023-02-18T09:21:08.120</time></trkpt><trkpt lat="56.2750983" lon="44.0141050"><time>2023-02-18T09:21:10.120</time></trkpt><trkpt lat="56.2751317" lon="44.0141783"><time>2023-02-18T09:21:13.120</time></trkpt><trkpt lat="56.2751733" lon="44.0142533"><time>2023-02-18T09:21:16.117</time></trkpt><trkpt lat="56.2751817" lon="44.0144000"><time>2023-02-18T09:21:18.120</time></trkpt><trkpt lat="56.2751983" lon="44.0144767"><time>2023-02-18T09:21:20.100</time></trkpt><trkpt lat="56.2752083" lon="44.0145667"><time>2023-02-18T09:21:22.100</time></trkpt><trkpt lat="56.2752317" lon="44.0146450"><time>2023-02-18T09:21:26.120</time></trkpt><trkpt lat="56.2752483" lon="44.0147200"><time>2023-02-18T09:21:29.107</time></trkpt><trkpt lat="56.2752650" lon="44.0148017"><time>2023-02-18T09:21:34.123</time></trkpt><trkpt lat="56.2753033" lon="44.0148867"><time>2023-02-18T09:21:37.120</time></trkpt><trkpt lat="56.2753233" lon="44.0149783"><time>2023-02-18T09:21:40.117</time></trkpt><trkpt lat="56.2753400" lon="44.0150667"><time>2023-02-18T09:21:45.097</time></trkpt><trkpt lat="56.2753817" lon="44.0151033"><time>2023-02-18T09:21:50.097</time></trkpt><trkpt lat="56.2754300" lon="44.0151383"><time>2023-02-18T09:21:55.100</time></trkpt><trkpt lat="56.2754767" lon="44.0151933"><time>2023-02-18T09:22:02.077</time></trkpt><trkpt lat="56.2755250" lon="44.0152233"><time>2023-02-18T09:22:06.123</time></trkpt><trkpt lat="56.2755717" lon="44.0152850"><time>2023-02-18T09:22:11.117</time></trkpt><trkpt lat="56.2756117" lon="44.0153250"><time>2023-02-18T09:22:15.087</time></trkpt><trkpt lat="56.2756583" lon="44.0153550"><time>2023-02-18T09:22:19.100</time></trkpt><trkpt lat="56.2757017" lon="44.0154050"><time>2023-02-18T09:22:24.103</time></trkpt><trkpt lat="56.2757400" lon="44.0154700"><time>2023-02-18T09:22:28.117</time></trkpt><trkpt lat="56.2757833" lon="44.0155133"><time>2023-02-18T09:22:31.120</time></trkpt><trkpt lat="56.2758350" lon="44.0155533"><time>2023-02-18T09:22:34.113</time></trkpt><trkpt lat="56.2758883" lon="44.0155683"><time>2023-02-18T09:22:37.117</time></trkpt><trkpt lat="56.2759483" lon="44.0155800"><time>2023-02-18T09:22:40.113</time></trkpt><trkpt lat="56.2760000" lon="44.0156333"><time>2023-02-18T09:22:44.120</time></trkpt><trkpt lat="56.2760483" lon="44.0156750"><time>2023-02-18T09:22:47.120</time></trkpt><trkpt lat="56.2760933" lon="44.0157383"><time>2023-02-18T09:22:50.120</time></trkpt><trkpt lat="56.2761317" lon="44.0158083"><time>2023-02-18T09:22:52.100</time></trkpt><trkpt lat="56.2761733" lon="44.0158733"><time>2023-02-18T09:22:56.100</time></trkpt><trkpt lat="56.2762033" lon="44.0159617"><time>2023-02-18T09:23:00.117</time></trkpt><trkpt lat="56.2762350" lon="44.0160550"><time>2023-02-18T09:23:03.100</time></trkpt><trkpt lat="56.2762683" lon="44.0161333"><time>2023-02-18T09:23:06.103</time></trkpt><trkpt lat="56.2763067" lon="44.0161833"><time>2023-02-18T09:23:10.113</time></trkpt><trkpt lat="56.2763433" lon="44.0162833"><time>2023-02-18T09:23:13.120</time></trkpt><trkpt lat="56.2763750" lon="44.0163750"><time>2023-02-18T09:23:16.117</time></trkpt><trkpt lat="56.2763700" lon="44.0164983"><time>2023-02-18T09:23:20.103</time></trkpt><trkpt lat="56.2763767" lon="44.0165967"><time>2023-02-18T09:23:22.100</time></trkpt><trkpt lat="56.2763783" lon="44.0166917"><time>2023-02-18T09:23:24.110</time></trkpt><trkpt lat="56.2763800" lon="44.0167733"><time>2023-02-18T09:23:27.120</time></trkpt><trkpt lat="56.2764067" lon="44.0168783"><time>2023-02-18T09:23:30.120</time></trkpt><trkpt lat="56.2764383" lon="44.0169533"><time>2023-02-18T09:23:32.113</time></trkpt><trkpt lat="56.2764733" lon="44.0170367"><time>2023-02-18T09:23:35.120</time></trkpt><trkpt lat="56.2764950" lon="44.0171183"><time>2023-02-18T09:23:37.107</time></trkpt><trkpt lat="56.2765250" lon="44.0172100"><time>2023-02-18T09:23:40.123</time></trkpt><trkpt lat="56.2765533" lon="44.0172750"><time>2023-02-18T09:23:42.123</time></trkpt><trkpt lat="56.2766017" lon="44.0173733"><time>2023-02-18T09:23:44.117</time></trkpt><trkpt lat="56.2766400" lon="44.0174517"><time>2023-02-18T09:23:46.117</time></trkpt><trkpt lat="56.2766767" lon="44.0175067"><time>2023-02-18T09:23:48.120</time></trkpt><trkpt lat="56.2767283" lon="44.0175967"><time>2023-02-18T09:23:51.103</time></trkpt><trkpt lat="56.2767700" lon="44.0176583"><time>2023-02-18T09:23:54.120</time></trkpt><trkpt lat="56.2768200" lon="44.0176983"><time>2023-02-18T09:23:57.117</time></trkpt><trkpt lat="56.2768717" lon="44.0177300"><time>2023-02-18T09:24:00.120</time></trkpt><trkpt lat="56.2769150" lon="44.0177600"><time>2023-02-18T09:24:03.120</time></trkpt><trkpt lat="56.2769633" lon="44.0178100"><time>2023-02-18T09:24:06.120</time></trkpt><trkpt lat="56.2770050" lon="44.0178583"><time>2023-02-18T09:24:09.117</time></trkpt><trkpt lat="56.2770433" lon="44.0179183"><time>2023-02-18T09:24:12.120</time></trkpt><trkpt lat="56.2770950" lon="44.0179950"><time>2023-02-18T09:24:15.100</time></trkpt><trkpt lat="56.2771417" lon="44.0180483"><time>2023-02-18T09:24:17.100</time></trkpt><trkpt lat="56.2771900" lon="44.0180867"><time>2023-02-18T09:24:20.120</time></trkpt><trkpt lat="56.2772417" lon="44.0181233"><time>2023-02-18T09:24:23.103</time></trkpt><trkpt lat="56.2772850" lon="44.0181750"><time>2023-02-18T09:24:25.100</time></trkpt><trkpt lat="56.2773317" lon="44.0182317"><time>2023-02-18T09:24:28.120</time></trkpt><trkpt lat="56.2773767" lon="44.0183050"><time>2023-02-18T09:24:31.120</time></trkpt><trkpt lat="56.2774167" lon="44.0183633"><time>2023-02-18T09:24:33.117</time></trkpt><trkpt lat="56.2774533" lon="44.0184550"><time>2023-02-18T09:24:35.103</time></trkpt><trkpt lat="56.2774850" lon="44.0185417"><time>2023-02-18T09:24:37.100</time></trkpt><trkpt lat="56.2775167" lon="44.0186017"><time>2023-02-18T09:24:39.107</time></trkpt><trkpt lat="56.2775550" lon="44.0186667"><time>2023-02-18T09:24:42.107</time></trkpt><trkpt lat="56.2776333" lon="44.0187983"><time>2023-02-18T09:24:45.107</time></trkpt><trkpt lat="56.2776617" lon="44.0188883"><time>2023-02-18T09:24:48.100</time></trkpt><trkpt lat="56.2776700" lon="44.0189900"><time>2023-02-18T09:24:53.120</time></trkpt><trkpt lat="56.2776800" lon="44.0190900"><time>2023-02-18T09:24:57.123</time></trkpt><trkpt lat="56.2776967" lon="44.0191850"><time>2023-02-18T09:25:00.107</time></trkpt><trkpt lat="56.2777050" lon="44.0192933"><time>2023-02-18T09:25:03.100</time></trkpt><trkpt lat="56.2777183" lon="44.0193833"><time>2023-02-18T09:25:07.100</time></trkpt><trkpt lat="56.2777383" lon="44.0194733"><time>2023-02-18T09:25:09.117</time></trkpt><trkpt lat="56.2777667" lon="44.0195967"><time>2023-02-18T09:25:12.080</time></trkpt><trkpt lat="56.2777867" lon="44.0196733"><time>2023-02-18T09:25:14.097</time></trkpt><trkpt lat="56.2777983" lon="44.0197833"><time>2023-02-18T09:25:16.090</time></trkpt><trkpt lat="56.2778100" lon="44.0198917"><time>2023-02-18T09:25:19.117</time></trkpt><trkpt lat="56.2778150" lon="44.0199800"><time>2023-02-18T09:25:21.120</time></trkpt><trkpt lat="56.2778100" lon="44.0200650"><time>2023-02-18T09:25:24.107</time></trkpt><trkpt lat="56.2778100" lon="44.0201467"><time>2023-02-18T09:25:27.093</time></trkpt><trkpt lat="56.2778400" lon="44.0203583"><time>2023-02-18T09:25:29.120</time></trkpt><trkpt lat="56.2778317" lon="44.0204683"><time>2023-02-18T09:25:32.100</time></trkpt><trkpt lat="56.2778500" lon="44.0206017"><time>2023-02-18T09:25:36.100</time></trkpt><trkpt lat="56.2779117" lon="44.0206667"><time>2023-02-18T09:25:39.130</time></trkpt><trkpt lat="56.2778800" lon="44.0207667"><time>2023-02-18T09:25:46.117</time></trkpt><trkpt lat="56.2778717" lon="44.0208583"><time>2023-02-18T09:25:48.100</time></trkpt><trkpt lat="56.2778717" lon="44.0209467"><time>2023-02-18T09:25:50.103</time></trkpt><trkpt lat="56.2779000" lon="44.0210350"><time>2023-02-18T09:25:54.103</time></trkpt><trkpt lat="56.2779383" lon="44.0210983"><time>2023-02-18T09:25:57.117</time></trkpt><trkpt lat="56.2779867" lon="44.0211683"><time>2023-02-18T09:26:00.117</time></trkpt><trkpt lat="56.2780233" lon="44.0212417"><time>2023-02-18T09:26:02.110</time></trkpt><trkpt lat="56.2780550" lon="44.0213300"><time>2023-02-18T09:26:04.117</time></trkpt><trkpt lat="56.2780850" lon="44.0213967"><time>2023-02-18T09:26:07.117</time></trkpt><trkpt lat="56.2781367" lon="44.0214517"><time>2023-02-18T09:26:10.120</time></trkpt><trkpt lat="56.2781783" lon="44.0215067"><time>2023-02-18T09:26:12.120</time></trkpt><trkpt lat="56.2782250" lon="44.0215583"><time>2023-02-18T09:26:14.120</time></trkpt><trkpt lat="56.2782717" lon="44.0216033"><time>2023-02-18T09:26:16.113</time></trkpt><trkpt lat="56.2783067" lon="44.0216567"><time>2023-02-18T09:26:18.117</time></trkpt><trkpt lat="56.2783567" lon="44.0217033"><time>2023-02-18T09:26:21.113</time></trkpt><trkpt lat="56.2784017" lon="44.0217517"><time>2023-02-18T09:26:24.117</time></trkpt><trkpt lat="56.2784533" lon="44.0218233"><time>2023-02-18T09:26:27.110</time></trkpt><trkpt lat="56.2784833" lon="44.0218883"><time>2023-02-18T09:26:29.120</time></trkpt><trkpt lat="56.2785250" lon="44.0219383"><time>2023-02-18T09:26:31.117</time></trkpt><trkpt lat="56.2785633" lon="44.0220000"><time>2023-02-18T09:26:33.100</time></trkpt><trkpt lat="56.2786050" lon="44.0220533"><time>2023-02-18T09:26:36.103</time></trkpt><trkpt lat="56.2786533" lon="44.0221100"><time>2023-02-18T09:26:39.117</time></trkpt><trkpt lat="56.2786900" lon="44.0221600"><time>2023-02-18T09:26:41.120</time></trkpt><trkpt lat="56.2787367" lon="44.0222250"><time>2023-02-18T09:26:44.117</time></trkpt><trkpt lat="56.2787683" lon="44.0222883"><time>2023-02-18T09:26:46.117</time></trkpt><trkpt lat="56.2788050" lon="44.0223783"><time>2023-02-18T09:26:48.120</time></trkpt><trkpt lat="56.2788350" lon="44.0224483"><time>2023-02-18T09:26:50.117</time></trkpt><trkpt lat="56.2788750" lon="44.0225033"><time>2023-02-18T09:26:52.117</time></trkpt><trkpt lat="56.2789117" lon="44.0225650"><time>2023-02-18T09:26:54.107</time></trkpt><trkpt lat="56.2789600" lon="44.0226400"><time>2023-02-18T09:26:57.100</time></trkpt><trkpt lat="56.2790050" lon="44.0226850"><time>2023-02-18T09:27:00.117</time></trkpt><trkpt lat="56.2790317" lon="44.0227667"><time>2023-02-18T09:27:02.097</time></trkpt><trkpt lat="56.2790783" lon="44.0228483"><time>2023-02-18T09:27:04.110</time></trkpt><trkpt lat="56.2791217" lon="44.0229183"><time>2023-02-18T09:27:06.100</time></trkpt><trkpt lat="56.2791600" lon="44.0229767"><time>2023-02-18T09:27:08.127</time></trkpt><trkpt lat="56.2791983" lon="44.0230333"><time>2023-02-18T09:27:11.120</time></trkpt><trkpt lat="56.2792333" lon="44.0231133"><time>2023-02-18T09:27:13.100</time></trkpt><trkpt lat="56.2792717" lon="44.0231917"><time>2023-02-18T09:27:15.103</time></trkpt><trkpt lat="56.2793067" lon="44.0232733"><time>2023-02-18T09:27:17.087</time></trkpt><trkpt lat="56.2793517" lon="44.0233500"><time>2023-02-18T09:27:20.100</time></trkpt><trkpt lat="56.2793683" lon="44.0234417"><time>2023-02-18T09:27:23.100</time></trkpt><trkpt lat="56.2793533" lon="44.0235300"><time>2023-02-18T09:27:26.097</time></trkpt><trkpt lat="56.2793333" lon="44.0236100"><time>2023-02-18T09:27:28.110</time></trkpt><trkpt lat="56.2793033" lon="44.0237067"><time>2023-02-18T09:27:31.097</time></trkpt><trkpt lat="56.2792683" lon="44.0238050"><time>2023-02-18T09:27:34.103</time></trkpt><trkpt lat="56.2792567" lon="44.0238900"><time>2023-02-18T09:27:36.100</time></trkpt><trkpt lat="56.2792667" lon="44.0239900"><time>2023-02-18T09:27:38.120</time></trkpt><trkpt lat="56.2792850" lon="44.0241000"><time>2023-02-18T09:27:41.120</time></trkpt><trkpt lat="56.2793267" lon="44.0241867"><time>2023-02-18T09:27:43.117</time></trkpt><trkpt lat="56.2793600" lon="44.0242833"><time>2023-02-18T09:27:45.117</time></trkpt><trkpt lat="56.2793933" lon="44.0243567"><time>2023-02-18T09:27:47.117</time></trkpt><trkpt lat="56.2794467" lon="44.0244483"><time>2023-02-18T09:27:49.097</time></trkpt><trkpt lat="56.2794750" lon="44.0245217"><time>2023-02-18T09:27:50.100</time></trkpt><trkpt lat="56.2795150" lon="44.0246250"><time>2023-02-18T09:27:52.100</time></trkpt><trkpt lat="56.2795550" lon="44.0247017"><time>2023-02-18T09:27:55.100</time></trkpt><trkpt lat="56.2795983" lon="44.0247950"><time>2023-02-18T09:27:58.100</time></trkpt><trkpt lat="56.2796333" lon="44.0248850"><time>2023-02-18T09:28:01.117</time></trkpt><trkpt lat="56.2796800" lon="44.0249833"><time>2023-02-18T09:28:04.117</time></trkpt><trkpt lat="56.2797033" lon="44.0250767"><time>2023-02-18T09:28:06.100</time></trkpt><trkpt lat="56.2797383" lon="44.0251533"><time>2023-02-18T09:28:10.097</time></trkpt><trkpt lat="56.2797800" lon="44.0252317"><time>2023-02-18T09:28:13.103</time></trkpt><trkpt lat="56.2798417" lon="44.0254100"><time>2023-02-18T09:28:16.120</time></trkpt><trkpt lat="56.2798700" lon="44.0254900"><time>2023-02-18T09:28:18.117</time></trkpt><trkpt lat="56.2799017" lon="44.0255783"><time>2023-02-18T09:28:20.117</time></trkpt><trkpt lat="56.2799450" lon="44.0256833"><time>2023-02-18T09:28:22.103</time></trkpt><trkpt lat="56.2799750" lon="44.0257767"><time>2023-02-18T09:28:25.097</time></trkpt><trkpt lat="56.2800033" lon="44.0258467"><time>2023-02-18T09:28:27.100</time></trkpt><trkpt lat="56.2800417" lon="44.0259117"><time>2023-02-18T09:28:29.107</time></trkpt><trkpt lat="56.2800700" lon="44.0259750"><time>2023-02-18T09:28:31.103</time></trkpt><trkpt lat="56.2801050" lon="44.0260750"><time>2023-02-18T09:28:34.107</time></trkpt><trkpt lat="56.2801400" lon="44.0261583"><time>2023-02-18T09:28:36.103</time></trkpt><trkpt lat="56.2801733" lon="44.0262333"><time>2023-02-18T09:28:38.117</time></trkpt><trkpt lat="56.2802133" lon="44.0262950"><time>2023-02-18T09:28:40.100</time></trkpt><trkpt lat="56.2802583" lon="44.0263517"><time>2023-02-18T09:28:42.103</time></trkpt><trkpt lat="56.2802933" lon="44.0264150"><time>2023-02-18T09:28:44.107</time></trkpt><trkpt lat="56.2803383" lon="44.0265050"><time>2023-02-18T09:28:47.100</time></trkpt><trkpt lat="56.2803700" lon="44.0265950"><time>2023-02-18T09:28:49.100</time></trkpt><trkpt lat="56.2803967" lon="44.0266617"><time>2023-02-18T09:28:51.100</time></trkpt><trkpt lat="56.2804183" lon="44.0267700"><time>2023-02-18T09:28:54.113</time></trkpt><trkpt lat="56.2804367" lon="44.0268800"><time>2023-02-18T09:28:56.107</time></trkpt><trkpt lat="56.2804400" lon="44.0269817"><time>2023-02-18T09:28:58.087</time></trkpt><trkpt lat="56.2804417" lon="44.0270633"><time>2023-02-18T09:29:00.083</time></trkpt><trkpt lat="56.2804350" lon="44.0271767"><time>2023-02-18T09:29:03.100</time></trkpt><trkpt lat="56.2804300" lon="44.0272700"><time>2023-02-18T09:29:05.100</time></trkpt><trkpt lat="56.2804183" lon="44.0273900"><time>2023-02-18T09:29:08.120</time></trkpt><trkpt lat="56.2804367" lon="44.0274883"><time>2023-02-18T09:29:10.120</time></trkpt><trkpt lat="56.2804667" lon="44.0276017"><time>2023-02-18T09:29:12.120</time></trkpt><trkpt lat="56.2804967" lon="44.0277000"><time>2023-02-18T09:29:14.107</time></trkpt><trkpt lat="56.2805350" lon="44.0278083"><time>2023-02-18T09:29:16.103</time></trkpt><trkpt lat="56.2805650" lon="44.0278917"><time>2023-02-18T09:29:18.090</time></trkpt><trkpt lat="56.2805983" lon="44.0279583"><time>2023-02-18T09:29:22.120</time></trkpt><trkpt lat="56.2806433" lon="44.0280433"><time>2023-02-18T09:29:25.120</time></trkpt><trkpt lat="56.2806967" lon="44.0281200"><time>2023-02-18T09:29:27.120</time></trkpt><trkpt lat="56.2807367" lon="44.0281833"><time>2023-02-18T09:29:29.113</time></trkpt><trkpt lat="56.2807683" lon="44.0282800"><time>2023-02-18T09:29:31.120</time></trkpt><trkpt lat="56.2807850" lon="44.0283633"><time>2023-02-18T09:29:33.120</time></trkpt><trkpt lat="56.2808100" lon="44.0284533"><time>2023-02-18T09:29:35.103</time></trkpt><trkpt lat="56.2808367" lon="44.0285350"><time>2023-02-18T09:29:38.103</time></trkpt><trkpt lat="56.2808700" lon="44.0286167"><time>2023-02-18T09:29:41.113</time></trkpt><trkpt lat="56.2808967" lon="44.0286850"><time>2023-02-18T09:29:44.110</time></trkpt><trkpt lat="56.2809283" lon="44.0287650"><time>2023-02-18T09:29:47.110</time></trkpt><trkpt lat="56.2809617" lon="44.0288433"><time>2023-02-18T09:29:50.120</time></trkpt><trkpt lat="56.2809950" lon="44.0289383"><time>2023-02-18T09:29:53.117</time></trkpt><trkpt lat="56.2810283" lon="44.0290300"><time>2023-02-18T09:29:56.120</time></trkpt><trkpt lat="56.2810483" lon="44.0291083"><time>2023-02-18T09:29:59.107</time></trkpt><trkpt lat="56.2810817" lon="44.0291717"><time>2023-02-18T09:30:02.087</time></trkpt><trkpt lat="56.2811433" lon="44.0292100"><time>2023-02-18T09:30:05.107</time></trkpt><trkpt lat="56.2812033" lon="44.0292417"><time>2023-02-18T09:30:07.120</time></trkpt><trkpt lat="56.2812467" lon="44.0292733"><time>2023-02-18T09:30:09.113</time></trkpt><trkpt lat="56.2812933" lon="44.0293217"><time>2023-02-18T09:30:12.117</time></trkpt><trkpt lat="56.2813367" lon="44.0293650"><time>2023-02-18T09:30:15.113</time></trkpt><trkpt lat="56.2813883" lon="44.0294067"><time>2023-02-18T09:30:17.117</time></trkpt><trkpt lat="56.2815350" lon="44.0294467"><time>2023-02-18T09:30:19.117</time></trkpt><trkpt lat="56.2815817" lon="44.0294700"><time>2023-02-18T09:30:21.120</time></trkpt><trkpt lat="56.2816333" lon="44.0294933"><time>2023-02-18T09:30:24.120</time></trkpt><trkpt lat="56.2816800" lon="44.0295133"><time>2023-02-18T09:30:28.117</time></trkpt><trkpt lat="56.2817283" lon="44.0295483"><time>2023-02-18T09:30:33.120</time></trkpt><trkpt lat="56.2817683" lon="44.0295900"><time>2023-02-18T09:30:37.117</time></trkpt><trkpt lat="56.2818217" lon="44.0296217"><time>2023-02-18T09:30:42.117</time></trkpt><trkpt lat="56.2818633" lon="44.0296650"><time>2023-02-18T09:30:46.103</time></trkpt><trkpt lat="56.2819083" lon="44.0296850"><time>2023-02-18T09:30:50.120</time></trkpt><trkpt lat="56.2819517" lon="44.0297117"><time>2023-02-18T09:30:54.117</time></trkpt><trkpt lat="56.2819983" lon="44.0297450"><time>2023-02-18T09:30:57.120</time></trkpt><trkpt lat="56.2820433" lon="44.0297717"><time>2023-02-18T09:31:00.117</time></trkpt><trkpt lat="56.2820933" lon="44.0297900"><time>2023-02-18T09:31:03.117</time></trkpt><trkpt lat="56.2821433" lon="44.0298200"><time>2023-02-18T09:31:08.107</time></trkpt><trkpt lat="56.2821850" lon="44.0298517"><time>2023-02-18T09:31:12.120</time></trkpt><trkpt lat="56.2822317" lon="44.0298883"><time>2023-02-18T09:31:16.117</time></trkpt><trkpt lat="56.2822750" lon="44.0299200"><time>2023-02-18T09:31:19.140</time></trkpt><trkpt lat="56.2822883" lon="44.0299300"><time>2023-02-18T09:31:20.103</time></trkpt><trkpt lat="56.2823333" lon="44.0299683"><time>2023-02-18T09:31:23.107</time></trkpt><trkpt lat="56.2823833" lon="44.0300017"><time>2023-02-18T09:31:27.120</time></trkpt><trkpt lat="56.2824300" lon="44.0300333"><time>2023-02-18T09:31:31.100</time></trkpt><trkpt lat="56.2824733" lon="44.0300650"><time>2023-02-18T09:31:34.107</time></trkpt><trkpt lat="56.2825250" lon="44.0300967"><time>2023-02-18T09:31:38.103</time></trkpt><trkpt lat="56.2825750" lon="44.0301417"><time>2023-02-18T09:31:42.120</time></trkpt><trkpt lat="56.2826233" lon="44.0301750"><time>2023-02-18T09:31:45.120</time></trkpt><trkpt lat="56.2826717" lon="44.0301917"><time>2023-02-18T09:31:48.120</time></trkpt><trkpt lat="56.2827217" lon="44.0301567"><time>2023-02-18T09:31:52.117</time></trkpt><trkpt lat="56.2827683" lon="44.0301033"><time>2023-02-18T09:31:56.103</time></trkpt><trkpt lat="56.2828167" lon="44.0300617"><time>2023-02-18T09:32:00.103</time></trkpt><trkpt lat="56.2828700" lon="44.0300133"><time>2023-02-18T09:32:04.100</time></trkpt><trkpt lat="56.2829267" lon="44.0299850"><time>2023-02-18T09:32:07.117</time></trkpt><trkpt lat="56.2829767" lon="44.0299267"><time>2023-02-18T09:32:10.117</time></trkpt><trkpt lat="56.2830183" lon="44.0298917"><time>2023-02-18T09:32:12.120</time></trkpt><trkpt lat="56.2830750" lon="44.0298450"><time>2023-02-18T09:32:15.123</time></trkpt><trkpt lat="56.2831100" lon="44.0297867"><time>2023-02-18T09:32:19.100</time></trkpt><trkpt lat="56.2831617" lon="44.0297417"><time>2023-02-18T09:32:24.123</time></trkpt><trkpt lat="56.2832250" lon="44.0297167"><time>2023-02-18T09:32:27.123</time></trkpt><trkpt lat="56.2832733" lon="44.0297067"><time>2023-02-18T09:32:30.120</time></trkpt><trkpt lat="56.2833250" lon="44.0296983"><time>2023-02-18T09:32:33.123</time></trkpt><trkpt lat="56.2833450" lon="44.0296883"><time>2023-02-18T09:32:34.100</time></trkpt><trkpt lat="56.2834017" lon="44.0296617"><time>2023-02-18T09:32:37.103</time></trkpt><trkpt lat="56.2834533" lon="44.0296567"><time>2023-02-18T09:32:40.120</time></trkpt><trkpt lat="56.2834983" lon="44.0296650"><time>2023-02-18T09:32:42.123</time></trkpt><trkpt lat="56.2835400" lon="44.0296050"><time>2023-02-18T09:32:45.097</time></trkpt><trkpt lat="56.2835567" lon="44.0294917"><time>2023-02-18T09:32:48.097</time></trkpt><trkpt lat="56.2835833" lon="44.0294117"><time>2023-02-18T09:32:52.103</time></trkpt><trkpt lat="56.2836250" lon="44.0293550"><time>2023-02-18T09:32:55.087</time></trkpt><trkpt lat="56.2836533" lon="44.0292717"><time>2023-02-18T09:32:58.110</time></trkpt><trkpt lat="56.2836850" lon="44.0291700"><time>2023-02-18T09:33:01.120</time></trkpt><trkpt lat="56.2837017" lon="44.0290950"><time>2023-02-18T09:33:03.120</time></trkpt><trkpt lat="56.2837100" lon="44.0290667"><time>2023-02-18T09:33:04.100</time></trkpt><trkpt lat="56.2837300" lon="44.0289933"><time>2023-02-18T09:33:06.100</time></trkpt><trkpt lat="56.2837500" lon="44.0289200"><time>2023-02-18T09:33:08.097</time></trkpt><trkpt lat="56.2837717" lon="44.0288450"><time>2023-02-18T09:33:10.103</time></trkpt><trkpt lat="56.2837883" lon="44.0287400"><time>2023-02-18T09:33:13.107</time></trkpt><trkpt lat="56.2837967" lon="44.0286550"><time>2023-02-18T09:33:15.093</time></trkpt><trkpt lat="56.2838250" lon="44.0285717"><time>2023-02-18T09:33:18.113</time></trkpt><trkpt lat="56.2838567" lon="44.0284750"><time>2023-02-18T09:33:21.130</time></trkpt><trkpt lat="56.2838567" lon="44.0284750"><time>2023-02-18T09:33:21.163</time></trkpt><trkpt lat="56.2838833" lon="44.0283900"><time>2023-02-18T09:33:23.100</time></trkpt><trkpt lat="56.2838933" lon="44.0283600"><time>2023-02-18T09:33:24.103</time></trkpt><trkpt lat="56.2839233" lon="44.0282833"><time>2023-02-18T09:33:27.100</time></trkpt><trkpt lat="56.2839533" lon="44.0282183"><time>2023-02-18T09:33:30.107</time></trkpt><trkpt lat="56.2839800" lon="44.0281483"><time>2023-02-18T09:33:32.120</time></trkpt><trkpt lat="56.2840083" lon="44.0280767"><time>2023-02-18T09:33:34.117</time></trkpt><trkpt lat="56.2840350" lon="44.0279683"><time>2023-02-18T09:33:37.120</time></trkpt><trkpt lat="56.2840633" lon="44.0278650"><time>2023-02-18T09:33:40.083</time></trkpt><trkpt lat="56.2840933" lon="44.0277517"><time>2023-02-18T09:33:43.117</time></trkpt><trkpt lat="56.2841050" lon="44.0276733"><time>2023-02-18T09:33:46.117</time></trkpt><trkpt lat="56.2840800" lon="44.0277617"><time>2023-02-18T09:33:57.117</time></trkpt><trkpt lat="56.2840500" lon="44.0278500"><time>2023-02-18T09:34:00.120</time></trkpt><trkpt lat="56.2840100" lon="44.0279350"><time>2023-02-18T09:34:02.120</time></trkpt><trkpt lat="56.2839650" lon="44.0280233"><time>2023-02-18T09:34:04.120</time></trkpt><trkpt lat="56.2839333" lon="44.0280933"><time>2023-02-18T09:34:06.120</time></trkpt><trkpt lat="56.2838833" lon="44.0280700"><time>2023-02-18T09:34:09.117</time></trkpt><trkpt lat="56.2838267" lon="44.0280333"><time>2023-02-18T09:34:12.120</time></trkpt><trkpt lat="56.2837900" lon="44.0279733"><time>2023-02-18T09:34:15.103</time></trkpt><trkpt lat="56.2837517" lon="44.0279133"><time>2023-02-18T09:34:18.120</time></trkpt><trkpt lat="56.2837183" lon="44.0278417"><time>2023-02-18T09:34:21.120</time></trkpt><trkpt lat="56.2836950" lon="44.0277633"><time>2023-02-18T09:34:24.093</time></trkpt><trkpt lat="56.2836467" lon="44.0277017"><time>2023-02-18T09:34:28.140</time></trkpt><trkpt lat="56.2836367" lon="44.0276950"><time>2023-02-18T09:34:29.123</time></trkpt><trkpt lat="56.2836050" lon="44.0276150"><time>2023-02-18T09:34:32.120</time></trkpt><trkpt lat="56.2835833" lon="44.0275150"><time>2023-02-18T09:34:35.107</time></trkpt><trkpt lat="56.2835633" lon="44.0274100"><time>2023-02-18T09:34:38.077</time></trkpt><trkpt lat="56.2835333" lon="44.0273233"><time>2023-02-18T09:34:41.093</time></trkpt><trkpt lat="56.2834833" lon="44.0272417"><time>2023-02-18T09:34:44.120</time></trkpt><trkpt lat="56.2834483" lon="44.0271817"><time>2023-02-18T09:34:46.103</time></trkpt><trkpt lat="56.2834133" lon="44.0271250"><time>2023-02-18T09:34:48.103</time></trkpt><trkpt lat="56.2833800" lon="44.0270617"><time>2023-02-18T09:34:50.100</time></trkpt><trkpt lat="56.2833483" lon="44.0269867"><time>2023-02-18T09:34:54.120</time></trkpt><trkpt lat="56.2833133" lon="44.0269000"><time>2023-02-18T09:34:57.120</time></trkpt><trkpt lat="56.2832817" lon="44.0267967"><time>2023-02-18T09:35:00.093</time></trkpt><trkpt lat="56.2832483" lon="44.0267250"><time>2023-02-18T09:35:02.117</time></trkpt><trkpt lat="56.2832267" lon="44.0266517"><time>2023-02-18T09:35:04.117</time></trkpt><trkpt lat="56.2832117" lon="44.0265483"><time>2023-02-18T09:35:07.113</time></trkpt><trkpt lat="56.2831933" lon="44.0264400"><time>2023-02-18T09:35:10.103</time></trkpt><trkpt lat="56.2831783" lon="44.0263400"><time>2023-02-18T09:35:13.120</time></trkpt><trkpt lat="56.2831733" lon="44.0262917"><time>2023-02-18T09:35:14.097</time></trkpt><trkpt lat="56.2831717" lon="44.0261817"><time>2023-02-18T09:35:16.097</time></trkpt><trkpt lat="56.2831700" lon="44.0260800"><time>2023-02-18T09:35:19.093</time></trkpt><trkpt lat="56.2831650" lon="44.0259717"><time>2023-02-18T09:35:21.093</time></trkpt><trkpt lat="56.2831483" lon="44.0258800"><time>2023-02-18T09:35:23.090</time></trkpt><trkpt lat="56.2831317" lon="44.0257983"><time>2023-02-18T09:35:25.100</time></trkpt><trkpt lat="56.2831083" lon="44.0257167"><time>2023-02-18T09:35:27.110</time></trkpt><trkpt lat="56.2831017" lon="44.0256017"><time>2023-02-18T09:35:29.097</time></trkpt><trkpt lat="56.2831067" lon="44.0255050"><time>2023-02-18T09:35:32.117</time></trkpt><trkpt lat="56.2831083" lon="44.0254567"><time>2023-02-18T09:35:33.097</time></trkpt><trkpt lat="56.2831150" lon="44.0253733"><time>2023-02-18T09:35:35.100</time></trkpt><trkpt lat="56.2831083" lon="44.0252633"><time>2023-02-18T09:35:38.100</time></trkpt><trkpt lat="56.2831100" lon="44.0251667"><time>2023-02-18T09:35:41.120</time></trkpt><trkpt lat="56.2830883" lon="44.0250583"><time>2023-02-18T09:35:43.077</time></trkpt><trkpt lat="56.2830783" lon="44.0249617"><time>2023-02-18T09:35:46.100</time></trkpt><trkpt lat="56.2829800" lon="44.0247767"><time>2023-02-18T09:35:47.117</time></trkpt><trkpt lat="56.2829800" lon="44.0247767"><time>2023-02-18T09:35:47.150</time></trkpt><trkpt lat="56.2829350" lon="44.0247200"><time>2023-02-18T09:35:49.123</time></trkpt><trkpt lat="56.2829250" lon="44.0246967"><time>2023-02-18T09:35:50.087</time></trkpt><trkpt lat="56.2829067" lon="44.0246033"><time>2023-02-18T09:35:54.103</time></trkpt><trkpt lat="56.2828917" lon="44.0245183"><time>2023-02-18T09:35:58.100</time></trkpt><trkpt lat="56.2829383" lon="44.0244583"><time>2023-02-18T09:36:04.120</time></trkpt><trkpt lat="56.2829800" lon="44.0244083"><time>2023-02-18T09:36:06.120</time></trkpt><trkpt lat="56.2830233" lon="44.0243333"><time>2023-02-18T09:36:09.117</time></trkpt><trkpt lat="56.2830600" lon="44.0242567"><time>2023-02-18T09:36:12.120</time></trkpt><trkpt lat="56.2831050" lon="44.0241933"><time>2023-02-18T09:36:15.110</time></trkpt><trkpt lat="56.2831417" lon="44.0241017"><time>2023-02-18T09:36:18.120</time></trkpt><trkpt lat="56.2831683" lon="44.0240283"><time>2023-02-18T09:36:20.097</time></trkpt><trkpt lat="56.2832067" lon="44.0239817"><time>2023-02-18T09:36:22.103</time></trkpt><trkpt lat="56.2832500" lon="44.0239233"><time>2023-02-18T09:36:25.097</time></trkpt><trkpt lat="56.2833067" lon="44.0238567"><time>2023-02-18T09:36:28.103</time></trkpt><trkpt lat="56.2833550" lon="44.0237933"><time>2023-02-18T09:36:31.100</time></trkpt><trkpt lat="56.2834033" lon="44.0237433"><time>2023-02-18T09:36:34.117</time></trkpt><trkpt lat="56.2834517" lon="44.0237317"><time>2023-02-18T09:36:39.113</time></trkpt><trkpt lat="56.2835133" lon="44.0237667"><time>2023-02-18T09:36:42.100</time></trkpt><trkpt lat="56.2835667" lon="44.0238000"><time>2023-02-18T09:36:44.100</time></trkpt><trkpt lat="56.2836150" lon="44.0238167"><time>2023-02-18T09:36:46.100</time></trkpt><trkpt lat="56.2836617" lon="44.0238183"><time>2023-02-18T09:36:48.103</time></trkpt><trkpt lat="56.2837233" lon="44.0238500"><time>2023-02-18T09:36:51.120</time></trkpt><trkpt lat="56.2837833" lon="44.0238667"><time>2023-02-18T09:36:54.120</time></trkpt><trkpt lat="56.2838283" lon="44.0239233"><time>2023-02-18T09:36:57.120</time></trkpt><trkpt lat="56.2838767" lon="44.0239800"><time>2023-02-18T09:37:00.117</time></trkpt><trkpt lat="56.2839267" lon="44.0240400"><time>2023-02-18T09:37:03.120</time></trkpt><trkpt lat="56.2839733" lon="44.0240950"><time>2023-02-18T09:37:06.120</time></trkpt><trkpt lat="56.2840167" lon="44.0241233"><time>2023-02-18T09:37:09.097</time></trkpt><trkpt lat="56.2840750" lon="44.0241050"><time>2023-02-18T09:37:13.100</time></trkpt><trkpt lat="56.2841300" lon="44.0240817"><time>2023-02-18T09:37:16.117</time></trkpt><trkpt lat="56.2841800" lon="44.0240600"><time>2023-02-18T09:37:19.123</time></trkpt><trkpt lat="56.2842317" lon="44.0240483"><time>2023-02-18T09:37:22.117</time></trkpt><trkpt lat="56.2842850" lon="44.0240350"><time>2023-02-18T09:37:25.097</time></trkpt><trkpt lat="56.2843333" lon="44.0240033"><time>2023-02-18T09:37:29.117</time></trkpt><trkpt lat="56.2843767" lon="44.0239750"><time>2023-02-18T09:37:34.117</time></trkpt><trkpt lat="56.2844367" lon="44.0239550"><time>2023-02-18T09:37:37.103</time></trkpt><trkpt lat="56.2844917" lon="44.0239500"><time>2023-02-18T09:37:40.100</time></trkpt><trkpt lat="56.2845500" lon="44.0239467"><time>2023-02-18T09:37:43.087</time></trkpt><trkpt lat="56.2846033" lon="44.0239500"><time>2023-02-18T09:37:46.117</time></trkpt><trkpt lat="56.2846633" lon="44.0239367"><time>2023-02-18T09:37:49.117</time></trkpt><trkpt lat="56.2847100" lon="44.0239233"><time>2023-02-18T09:37:52.083</time></trkpt><trkpt lat="56.2847733" lon="44.0239583"><time>2023-02-18T09:37:55.093</time></trkpt><trkpt lat="56.2848200" lon="44.0239867"><time>2023-02-18T09:37:57.077</time></trkpt><trkpt lat="56.2848667" lon="44.0240117"><time>2023-02-18T09:37:59.103</time></trkpt><trkpt lat="56.2849133" lon="44.0240333"><time>2023-02-18T09:38:01.100</time></trkpt><trkpt lat="56.2849617" lon="44.0240683"><time>2023-02-18T09:38:03.077</time></trkpt><trkpt lat="56.2850067" lon="44.0241017"><time>2023-02-18T09:38:05.083</time></trkpt><trkpt lat="56.2850500" lon="44.0241250"><time>2023-02-18T09:38:07.100</time></trkpt><trkpt lat="56.2850950" lon="44.0241483"><time>2023-02-18T09:38:10.087</time></trkpt><trkpt lat="56.2851567" lon="44.0241750"><time>2023-02-18T09:38:13.117</time></trkpt><trkpt lat="56.2852017" lon="44.0241950"><time>2023-02-18T09:38:15.103</time></trkpt><trkpt lat="56.2852550" lon="44.0242317"><time>2023-02-18T09:38:18.110</time></trkpt><trkpt lat="56.2853067" lon="44.0242633"><time>2023-02-18T09:38:21.113</time></trkpt><trkpt lat="56.2853583" lon="44.0242867"><time>2023-02-18T09:38:24.103</time></trkpt><trkpt lat="56.2854050" lon="44.0242983"><time>2023-02-18T09:38:27.097</time></trkpt><trkpt lat="56.2854533" lon="44.0243283"><time>2023-02-18T09:38:30.093</time></trkpt><trkpt lat="56.2855083" lon="44.0243467"><time>2023-02-18T09:38:34.117</time></trkpt><trkpt lat="56.2855533" lon="44.0243683"><time>2023-02-18T09:38:37.120</time></trkpt><trkpt lat="56.2856033" lon="44.0244050"><time>2023-02-18T09:38:40.103</time></trkpt><trkpt lat="56.2856617" lon="44.0244483"><time>2023-02-18T09:38:44.103</time></trkpt><trkpt lat="56.2857050" lon="44.0244733"><time>2023-02-18T09:38:47.117</time></trkpt><trkpt lat="56.2857533" lon="44.0244833"><time>2023-02-18T09:38:51.117</time></trkpt><trkpt lat="56.2858050" lon="44.0245050"><time>2023-02-18T09:38:55.107</time></trkpt><trkpt lat="56.2858550" lon="44.0245467"><time>2023-02-18T09:38:58.100</time></trkpt><trkpt lat="56.2859033" lon="44.0245733"><time>2023-02-18T09:39:01.103</time></trkpt><trkpt lat="56.2859517" lon="44.0245867"><time>2023-02-18T09:39:05.110</time></trkpt><trkpt lat="56.2860000" lon="44.0245917"><time>2023-02-18T09:39:09.117</time></trkpt><trkpt lat="56.2860317" lon="44.0246833"><time>2023-02-18T09:39:15.097</time></trkpt><trkpt lat="56.2860617" lon="44.0247467"><time>2023-02-18T09:39:19.117</time></trkpt><trkpt lat="56.2860967" lon="44.0248233"><time>2023-02-18T09:39:24.083</time></trkpt><trkpt lat="56.2861267" lon="44.0249017"><time>2023-02-18T09:39:30.097</time></trkpt><trkpt lat="56.2861583" lon="44.0249750"><time>2023-02-18T09:39:37.097</time></trkpt><trkpt lat="56.2861983" lon="44.0250333"><time>2023-02-18T09:39:44.120</time></trkpt><trkpt lat="56.2862383" lon="44.0250817"><time>2023-02-18T09:39:49.103</time></trkpt><trkpt lat="56.2862767" lon="44.0251400"><time>2023-02-18T09:39:52.120</time></trkpt><trkpt lat="56.2863233" lon="44.0251967"><time>2023-02-18T09:39:55.113</time></trkpt><trkpt lat="56.2863567" lon="44.0252683"><time>2023-02-18T09:39:58.120</time></trkpt><trkpt lat="56.2863967" lon="44.0253583"><time>2023-02-18T09:40:01.120</time></trkpt><trkpt lat="56.2864400" lon="44.0254033"><time>2023-02-18T09:40:04.103</time></trkpt><trkpt lat="56.2864867" lon="44.0254400"><time>2023-02-18T09:40:07.113</time></trkpt><trkpt lat="56.2865317" lon="44.0254717"><time>2023-02-18T09:40:10.093</time></trkpt><trkpt lat="56.2865833" lon="44.0255000"><time>2023-02-18T09:40:13.123</time></trkpt><trkpt lat="56.2866267" lon="44.0255467"><time>2023-02-18T09:40:16.103</time></trkpt><trkpt lat="56.2866717" lon="44.0256050"><time>2023-02-18T09:40:19.117</time></trkpt><trkpt lat="56.2867200" lon="44.0256733"><time>2023-02-18T09:40:22.120</time></trkpt><trkpt lat="56.2867700" lon="44.0257267"><time>2023-02-18T09:40:25.103</time></trkpt><trkpt lat="56.2868150" lon="44.0257950"><time>2023-02-18T09:40:28.100</time></trkpt><trkpt lat="56.2868650" lon="44.0258517"><time>2023-02-18T09:40:31.103</time></trkpt><trkpt lat="56.2869200" lon="44.0259050"><time>2023-02-18T09:40:34.097</time></trkpt><trkpt lat="56.2869767" lon="44.0259583"><time>2023-02-18T09:40:37.117</time></trkpt><trkpt lat="56.2870250" lon="44.0260050"><time>2023-02-18T09:40:40.100</time></trkpt><trkpt lat="56.2870683" lon="44.0260817"><time>2023-02-18T09:40:43.100</time></trkpt><trkpt lat="56.2871250" lon="44.0261350"><time>2023-02-18T09:40:46.100</time></trkpt><trkpt lat="56.2871833" lon="44.0261733"><time>2023-02-18T09:40:49.097</time></trkpt><trkpt lat="56.2872517" lon="44.0262317"><time>2023-02-18T09:40:52.120</time></trkpt><trkpt lat="56.2872800" lon="44.0262583"><time>2023-02-18T09:40:53.103</time></trkpt><trkpt lat="56.2873250" lon="44.0262900"><time>2023-02-18T09:40:55.093</time></trkpt><trkpt lat="56.2873800" lon="44.0263067"><time>2023-02-18T09:40:58.103</time></trkpt><trkpt lat="56.2874450" lon="44.0262817"><time>2023-02-18T09:41:01.107</time></trkpt><trkpt lat="56.2874950" lon="44.0262617"><time>2023-02-18T09:41:03.100</time></trkpt><trkpt lat="56.2875517" lon="44.0262583"><time>2023-02-18T09:41:06.120</time></trkpt><trkpt lat="56.2875967" lon="44.0262633"><time>2023-02-18T09:41:08.103</time></trkpt><trkpt lat="56.2876483" lon="44.0262750"><time>2023-02-18T09:41:10.097</time></trkpt><trkpt lat="56.2876983" lon="44.0262967"><time>2023-02-18T09:41:12.103</time></trkpt><trkpt lat="56.2877467" lon="44.0263167"><time>2023-02-18T09:41:14.103</time></trkpt><trkpt lat="56.2878133" lon="44.0263417"><time>2023-02-18T09:41:17.097</time></trkpt><trkpt lat="56.2878600" lon="44.0263617"><time>2023-02-18T09:41:19.087</time></trkpt><trkpt lat="56.2879100" lon="44.0263900"><time>2023-02-18T09:41:21.133</time></trkpt><trkpt lat="56.2879533" lon="44.0264150"><time>2023-02-18T09:41:23.107</time></trkpt><trkpt lat="56.2879967" lon="44.0264433"><time>2023-02-18T09:41:25.107</time></trkpt><trkpt lat="56.2880433" lon="44.0264550"><time>2023-02-18T09:41:27.103</time></trkpt><trkpt lat="56.2880933" lon="44.0264683"><time>2023-02-18T09:41:29.100</time></trkpt><trkpt lat="56.2881450" lon="44.0264833"><time>2023-02-18T09:41:31.137</time></trkpt><trkpt lat="56.2881667" lon="44.0264883"><time>2023-02-18T09:41:32.103</time></trkpt><trkpt lat="56.2882267" lon="44.0265017"><time>2023-02-18T09:41:35.097</time></trkpt><trkpt lat="56.2882817" lon="44.0265117"><time>2023-02-18T09:41:38.100</time></trkpt><trkpt lat="56.2883300" lon="44.0265083"><time>2023-02-18T09:41:41.117</time></trkpt><trkpt lat="56.2883933" lon="44.0265233"><time>2023-02-18T09:41:44.120</time></trkpt><trkpt lat="56.2884450" lon="44.0265533"><time>2023-02-18T09:41:46.120</time></trkpt><trkpt lat="56.2884900" lon="44.0265817"><time>2023-02-18T09:41:48.123</time></trkpt><trkpt lat="56.2885317" lon="44.0266233"><time>2023-02-18T09:41:50.110</time></trkpt><trkpt lat="56.2885667" lon="44.0266817"><time>2023-02-18T09:41:52.150</time></trkpt><trkpt lat="56.2885850" lon="44.0267033"><time>2023-02-18T09:41:53.100</time></trkpt><trkpt lat="56.2886250" lon="44.0267583"><time>2023-02-18T09:41:55.097</time></trkpt><trkpt lat="56.2886733" lon="44.0268117"><time>2023-02-18T09:41:58.103</time></trkpt><trkpt lat="56.2887150" lon="44.0268433"><time>2023-02-18T09:42:00.103</time></trkpt><trkpt lat="56.2887683" lon="44.0268817"><time>2023-02-18T09:42:03.100</time></trkpt><trkpt lat="56.2888117" lon="44.0269200"><time>2023-02-18T09:42:05.097</time></trkpt><trkpt lat="56.2888517" lon="44.0269617"><time>2023-02-18T09:42:07.107</time></trkpt><trkpt lat="56.2889100" lon="44.0270167"><time>2023-02-18T09:42:10.120</time></trkpt><trkpt lat="56.2889100" lon="44.0270167"><time>2023-02-18T09:42:10.150</time></trkpt><trkpt lat="56.2889683" lon="44.0270650"><time>2023-02-18T09:42:13.120</time></trkpt><trkpt lat="56.2889967" lon="44.0270933"><time>2023-02-18T09:42:14.110</time></trkpt><trkpt lat="56.2890483" lon="44.0271333"><time>2023-02-18T09:42:16.090</time></trkpt><trkpt lat="56.2890967" lon="44.0271167"><time>2023-02-18T09:42:20.097</time></trkpt><trkpt lat="56.2891183" lon="44.0270450"><time>2023-02-18T09:42:23.100</time></trkpt><trkpt lat="56.2891417" lon="44.0269600"><time>2023-02-18T09:42:26.100</time></trkpt><trkpt lat="56.2891650" lon="44.0268833"><time>2023-02-18T09:42:28.097</time></trkpt><trkpt lat="56.2891933" lon="44.0267917"><time>2023-02-18T09:42:31.100</time></trkpt><trkpt lat="56.2892050" lon="44.0267050"><time>2023-02-18T09:42:34.100</time></trkpt><trkpt lat="56.2891917" lon="44.0265967"><time>2023-02-18T09:42:37.103</time></trkpt><trkpt lat="56.2891750" lon="44.0264900"><time>2023-02-18T09:42:40.090</time></trkpt><trkpt lat="56.2891667" lon="44.0263883"><time>2023-02-18T09:42:43.083</time></trkpt><trkpt lat="56.2891617" lon="44.0262850"><time>2023-02-18T09:42:46.100</time></trkpt><trkpt lat="56.2891533" lon="44.0261883"><time>2023-02-18T09:42:49.117</time></trkpt><trkpt lat="56.2891417" lon="44.0260917"><time>2023-02-18T09:42:52.120</time></trkpt><trkpt lat="56.2891333" lon="44.0260000"><time>2023-02-18T09:42:54.117</time></trkpt><trkpt lat="56.2891250" lon="44.0259083"><time>2023-02-18T09:42:56.120</time></trkpt><trkpt lat="56.2891150" lon="44.0258133"><time>2023-02-18T09:42:58.117</time></trkpt><trkpt lat="56.2891100" lon="44.0257317"><time>2023-02-18T09:43:00.110</time></trkpt><trkpt lat="56.2891033" lon="44.0256233"><time>2023-02-18T09:43:03.117</time></trkpt><trkpt lat="56.2891217" lon="44.0255400"><time>2023-02-18T09:43:05.107</time></trkpt><trkpt lat="56.2891450" lon="44.0254483"><time>2023-02-18T09:43:07.103</time></trkpt><trkpt lat="56.2891667" lon="44.0253533"><time>2023-02-18T09:43:10.087</time></trkpt><trkpt lat="56.2891733" lon="44.0252567"><time>2023-02-18T09:43:14.117</time></trkpt><trkpt lat="56.2891650" lon="44.0251667"><time>2023-02-18T09:43:17.120</time></trkpt><trkpt lat="56.2891567" lon="44.0250667"><time>2023-02-18T09:43:20.107</time></trkpt><trkpt lat="56.2891467" lon="44.0249633"><time>2023-02-18T09:43:23.130</time></trkpt><trkpt lat="56.2891433" lon="44.0248783"><time>2023-02-18T09:43:25.103</time></trkpt><trkpt lat="56.2891400" lon="44.0247583"><time>2023-02-18T09:43:28.117</time></trkpt><trkpt lat="56.2891400" lon="44.0246767"><time>2023-02-18T09:43:30.107</time></trkpt><trkpt lat="56.2891283" lon="44.0245783"><time>2023-02-18T09:43:33.120</time></trkpt><trkpt lat="56.2891083" lon="44.0244950"><time>2023-02-18T09:43:37.120</time></trkpt><trkpt lat="56.2891100" lon="44.0243917"><time>2023-02-18T09:43:40.097</time></trkpt><trkpt lat="56.2891083" lon="44.0242633"><time>2023-02-18T09:43:43.113</time></trkpt><trkpt lat="56.2891167" lon="44.0241517"><time>2023-02-18T09:43:46.077</time></trkpt><trkpt lat="56.2891200" lon="44.0240483"><time>2023-02-18T09:43:48.117</time></trkpt><trkpt lat="56.2891183" lon="44.0239200"><time>2023-02-18T09:43:51.113</time></trkpt><trkpt lat="56.2891283" lon="44.0238300"><time>2023-02-18T09:43:53.117</time></trkpt><trkpt lat="56.2891300" lon="44.0237483"><time>2023-02-18T09:43:55.097</time></trkpt><trkpt lat="56.2891233" lon="44.0236583"><time>2023-02-18T09:43:58.120</time></trkpt><trkpt lat="56.2891183" lon="44.0235533"><time>2023-02-18T09:44:01.120</time></trkpt><trkpt lat="56.2891083" lon="44.0234367"><time>2023-02-18T09:44:04.120</time></trkpt><trkpt lat="56.2891017" lon="44.0233517"><time>2023-02-18T09:44:06.120</time></trkpt><trkpt lat="56.2890900" lon="44.0232717"><time>2023-02-18T09:44:08.120</time></trkpt><trkpt lat="56.2890700" lon="44.0231767"><time>2023-02-18T09:44:11.117</time></trkpt><trkpt lat="56.2890433" lon="44.0230850"><time>2023-02-18T09:44:14.087</time></trkpt><trkpt lat="56.2890133" lon="44.0229967"><time>2023-02-18T09:44:18.117</time></trkpt><trkpt lat="56.2890000" lon="44.0228967"><time>2023-02-18T09:44:20.110</time></trkpt><trkpt lat="56.2889767" lon="44.0228267"><time>2023-02-18T09:44:22.117</time></trkpt><trkpt lat="56.2889450" lon="44.0227483"><time>2023-02-18T09:44:25.107</time></trkpt><trkpt lat="56.2889167" lon="44.0226800"><time>2023-02-18T09:44:28.117</time></trkpt><trkpt lat="56.2888900" lon="44.0226117"><time>2023-02-18T09:44:31.120</time></trkpt><trkpt lat="56.2888733" lon="44.0225133"><time>2023-02-18T09:44:35.100</time></trkpt><trkpt lat="56.2888700" lon="44.0224167"><time>2023-02-18T09:44:38.120</time></trkpt><trkpt lat="56.2888633" lon="44.0222867"><time>2023-02-18T09:44:41.123</time></trkpt><trkpt lat="56.2888633" lon="44.0221633"><time>2023-02-18T09:44:43.107</time></trkpt><trkpt lat="56.2888800" lon="44.0220300"><time>2023-02-18T09:44:45.093</time></trkpt><trkpt lat="56.2888850" lon="44.0219383"><time>2023-02-18T09:44:47.100</time></trkpt><trkpt lat="56.2888850" lon="44.0218350"><time>2023-02-18T09:44:49.097</time></trkpt><trkpt lat="56.2888767" lon="44.0217383"><time>2023-02-18T09:44:52.120</time></trkpt><trkpt lat="56.2888883" lon="44.0216000"><time>2023-02-18T09:44:54.120</time></trkpt><trkpt lat="56.2888783" lon="44.0214850"><time>2023-02-18T09:44:57.127</time></trkpt><trkpt lat="56.2888750" lon="44.0213700"><time>2023-02-18T09:45:00.110</time></trkpt><trkpt lat="56.2888783" lon="44.0212033"><time>2023-02-18T09:45:02.120</time></trkpt><trkpt lat="56.2888750" lon="44.0211167"><time>2023-02-18T09:45:04.097</time></trkpt><trkpt lat="56.2888733" lon="44.0210167"><time>2023-02-18T09:45:07.123</time></trkpt><trkpt lat="56.2888683" lon="44.0209283"><time>2023-02-18T09:45:10.110</time></trkpt><trkpt lat="56.2888683" lon="44.0208233"><time>2023-02-18T09:45:13.120</time></trkpt><trkpt lat="56.2888700" lon="44.0207033"><time>2023-02-18T09:45:16.120</time></trkpt><trkpt lat="56.2888800" lon="44.0206000"><time>2023-02-18T09:45:19.100</time></trkpt><trkpt lat="56.2888883" lon="44.0205100"><time>2023-02-18T09:45:22.103</time></trkpt><trkpt lat="56.2888917" lon="44.0204150"><time>2023-02-18T09:45:25.103</time></trkpt><trkpt lat="56.2888983" lon="44.0203250"><time>2023-02-18T09:45:27.143</time></trkpt><trkpt lat="56.2889033" lon="44.0202783"><time>2023-02-18T09:45:28.117</time></trkpt><trkpt lat="56.2889117" lon="44.0201667"><time>2023-02-18T09:45:31.117</time></trkpt><trkpt lat="56.2889183" lon="44.0200700"><time>2023-02-18T09:45:34.117</time></trkpt><trkpt lat="56.2889283" lon="44.0199733"><time>2023-02-18T09:45:37.117</time></trkpt><trkpt lat="56.2889433" lon="44.0198617"><time>2023-02-18T09:45:40.100</time></trkpt><trkpt lat="56.2889567" lon="44.0197500"><time>2023-02-18T09:45:43.117</time></trkpt><trkpt lat="56.2889633" lon="44.0196567"><time>2023-02-18T09:45:45.097</time></trkpt><trkpt lat="56.2889733" lon="44.0195750"><time>2023-02-18T09:45:47.117</time></trkpt><trkpt lat="56.2889800" lon="44.0194917"><time>2023-02-18T09:45:49.120</time></trkpt><trkpt lat="56.2889933" lon="44.0193833"><time>2023-02-18T09:45:52.117</time></trkpt><trkpt lat="56.2890017" lon="44.0193000"><time>2023-02-18T09:45:54.120</time></trkpt><trkpt lat="56.2890100" lon="44.0192033"><time>2023-02-18T09:45:57.113</time></trkpt><trkpt lat="56.2890267" lon="44.0190883"><time>2023-02-18T09:46:01.120</time></trkpt><trkpt lat="56.2890600" lon="44.0189967"><time>2023-02-18T09:46:05.100</time></trkpt><trkpt lat="56.2890817" lon="44.0189150"><time>2023-02-18T09:46:07.097</time></trkpt><trkpt lat="56.2891083" lon="44.0188183"><time>2023-02-18T09:46:09.117</time></trkpt><trkpt lat="56.2891317" lon="44.0187217"><time>2023-02-18T09:46:11.117</time></trkpt><trkpt lat="56.2891467" lon="44.0186233"><time>2023-02-18T09:46:13.110</time></trkpt><trkpt lat="56.2891533" lon="44.0184883"><time>2023-02-18T09:46:16.113</time></trkpt><trkpt lat="56.2891650" lon="44.0183733"><time>2023-02-18T09:46:18.113</time></trkpt><trkpt lat="56.2891783" lon="44.0182483"><time>2023-02-18T09:46:21.097</time></trkpt><trkpt lat="56.2891900" lon="44.0181650"><time>2023-02-18T09:46:23.097</time></trkpt><trkpt lat="56.2892100" lon="44.0180667"><time>2023-02-18T09:46:26.083</time></trkpt><trkpt lat="56.2892317" lon="44.0179733"><time>2023-02-18T09:46:29.097</time></trkpt><trkpt lat="56.2892533" lon="44.0178933"><time>2023-02-18T09:46:31.113</time></trkpt><trkpt lat="56.2892667" lon="44.0178467"><time>2023-02-18T09:46:32.097</time></trkpt><trkpt lat="56.2893033" lon="44.0177400"><time>2023-02-18T09:46:34.097</time></trkpt><trkpt lat="56.2893383" lon="44.0176483"><time>2023-02-18T09:46:36.097</time></trkpt><trkpt lat="56.2893667" lon="44.0175817"><time>2023-02-18T09:46:37.097</time></trkpt><trkpt lat="56.2894133" lon="44.0174933"><time>2023-02-18T09:46:39.090</time></trkpt><trkpt lat="56.2894567" lon="44.0174067"><time>2023-02-18T09:46:41.100</time></trkpt><trkpt lat="56.2894967" lon="44.0173150"><time>2023-02-18T09:46:43.097</time></trkpt><trkpt lat="56.2895450" lon="44.0172383"><time>2023-02-18T09:46:46.137</time></trkpt><trkpt lat="56.2895450" lon="44.0172383"><time>2023-02-18T09:46:46.847</time></trkpt><trkpt lat="56.2895867" lon="44.0171917"><time>2023-02-18T09:46:50.097</time></trkpt><trkpt lat="56.2896250" lon="44.0171150"><time>2023-02-18T09:46:52.110</time></trkpt><trkpt lat="56.2896533" lon="44.0170267"><time>2023-02-18T09:46:54.110</time></trkpt><trkpt lat="56.2896717" lon="44.0169283"><time>2023-02-18T09:46:56.107</time></trkpt><trkpt lat="56.2896983" lon="44.0167933"><time>2023-02-18T09:46:58.113</time></trkpt><trkpt lat="56.2897283" lon="44.0167250"><time>2023-02-18T09:47:01.097</time></trkpt><trkpt lat="56.2897617" lon="44.0166683"><time>2023-02-18T09:47:04.110</time></trkpt><trkpt lat="56.2897883" lon="44.0165700"><time>2023-02-18T09:47:08.110</time></trkpt><trkpt lat="56.2898433" lon="44.0164750"><time>2023-02-18T09:47:10.103</time></trkpt><trkpt lat="56.2899067" lon="44.0163300"><time>2023-02-18T09:47:11.110</time></trkpt><trkpt lat="56.2899383" lon="44.0162467"><time>2023-02-18T09:47:12.110</time></trkpt></trkseg></trk></gpx>